<?xml version="1.0" encoding="UTF-8" standalone="no" ?>
<gpx xmlns="http://www.topografix.com/GPX/1/1" xmlns:xsi="http://www.w3.org/2001/XMLSchema-instance" xsi:schemaLocation="http://www.topografix.com/GPX/1/1 http://www.topografix.com/GPX/1/1/gpx.xsd" version="1.1" creator="VisuGPX - https://www.visugpx.com">
  <metadata>
    <name>Saint Galmier Sorbiers en vtt par les antennes de Saint Heand</name>
    <desc><![CDATA[Ca ne fait quasiment que monter jusqu\'aux antennes point culminant du tracé aux alentours de 1h20]]></desc>
  </metadata>
  <trk>
    <name><![CDATA[Saint-Galmier sorbiers]]></name>
    <trkseg>
      <trkpt lat="45.59425" lon="4.31183">
        <ele>388.39999389648</ele>
        <time>2015-08-22T15:27:53.000Z</time>
      </trkpt>
      <trkpt lat="45.59423" lon="4.31181">
        <ele>388.39999389648</ele>
        <time>2015-08-22T15:27:54.000Z</time>
      </trkpt>
      <trkpt lat="45.59412" lon="4.31203">
        <ele>388.79998779297</ele>
        <time>2015-08-22T15:27:59.000Z</time>
      </trkpt>
      <trkpt lat="45.59417" lon="4.31204">
        <ele>389</ele>
        <time>2015-08-22T15:28:00.000Z</time>
      </trkpt>
      <trkpt lat="45.59401" lon="4.31225">
        <ele>389.60000610352</ele>
        <time>2015-08-22T15:28:06.000Z</time>
      </trkpt>
      <trkpt lat="45.59403" lon="4.31228">
        <ele>389.79998779297</ele>
        <time>2015-08-22T15:28:07.000Z</time>
      </trkpt>
      <trkpt lat="45.59387" lon="4.31248">
        <ele>390.39999389648</ele>
        <time>2015-08-22T15:28:12.000Z</time>
      </trkpt>
      <trkpt lat="45.59369" lon="4.31248">
        <ele>390</ele>
        <time>2015-08-22T15:28:15.000Z</time>
      </trkpt>
      <trkpt lat="45.59361" lon="4.31255">
        <ele>390.20001220703</ele>
        <time>2015-08-22T15:28:17.000Z</time>
      </trkpt>
      <trkpt lat="45.59349" lon="4.3124">
        <ele>389.20001220703</ele>
        <time>2015-08-22T15:28:22.000Z</time>
      </trkpt>
      <trkpt lat="45.59349" lon="4.31233">
        <ele>388.79998779297</ele>
        <time>2015-08-22T15:28:23.000Z</time>
      </trkpt>
      <trkpt lat="45.59346" lon="4.31209">
        <ele>387.60000610352</ele>
        <time>2015-08-22T15:28:26.000Z</time>
      </trkpt>
      <trkpt lat="45.59331" lon="4.31204">
        <ele>387</ele>
        <time>2015-08-22T15:28:30.000Z</time>
      </trkpt>
      <trkpt lat="45.59313" lon="4.31223">
        <ele>387.60000610352</ele>
        <time>2015-08-22T15:28:34.000Z</time>
      </trkpt>
      <trkpt lat="45.59306" lon="4.31234">
        <ele>387.79998779297</ele>
        <time>2015-08-22T15:28:36.000Z</time>
      </trkpt>
      <trkpt lat="45.5929" lon="4.31254">
        <ele>387.60000610352</ele>
        <time>2015-08-22T15:28:40.000Z</time>
      </trkpt>
      <trkpt lat="45.59273" lon="4.31275">
        <ele>387</ele>
        <time>2015-08-22T15:28:44.000Z</time>
      </trkpt>
      <trkpt lat="45.59259" lon="4.31292">
        <ele>386.39999389648</ele>
        <time>2015-08-22T15:28:47.000Z</time>
      </trkpt>
      <trkpt lat="45.59245" lon="4.31309">
        <ele>386</ele>
        <time>2015-08-22T15:28:50.000Z</time>
      </trkpt>
      <trkpt lat="45.59226" lon="4.31325">
        <ele>385.79998779297</ele>
        <time>2015-08-22T15:28:54.000Z</time>
      </trkpt>
      <trkpt lat="45.59204" lon="4.31337">
        <ele>385.79998779297</ele>
        <time>2015-08-22T15:28:58.000Z</time>
      </trkpt>
      <trkpt lat="45.59188" lon="4.31348">
        <ele>386</ele>
        <time>2015-08-22T15:29:01.000Z</time>
      </trkpt>
      <trkpt lat="45.59183" lon="4.31354">
        <ele>386.20001220703</ele>
        <time>2015-08-22T15:29:02.000Z</time>
      </trkpt>
      <trkpt lat="45.59169" lon="4.31378">
        <ele>387.39999389648</ele>
        <time>2015-08-22T15:29:06.000Z</time>
      </trkpt>
      <trkpt lat="45.59158" lon="4.31403">
        <ele>389</ele>
        <time>2015-08-22T15:29:11.000Z</time>
      </trkpt>
      <trkpt lat="45.59155" lon="4.31407">
        <ele>389.20001220703</ele>
        <time>2015-08-22T15:29:12.000Z</time>
      </trkpt>
      <trkpt lat="45.59151" lon="4.31415">
        <ele>389.39999389648</ele>
        <time>2015-08-22T15:29:14.000Z</time>
      </trkpt>
      <trkpt lat="45.59143" lon="4.3143">
        <ele>390.20001220703</ele>
        <time>2015-08-22T15:29:18.000Z</time>
      </trkpt>
      <trkpt lat="45.59132" lon="4.31452">
        <ele>391.39999389648</ele>
        <time>2015-08-22T15:29:24.000Z</time>
      </trkpt>
      <trkpt lat="45.5913" lon="4.31454">
        <ele>391.60000610352</ele>
        <time>2015-08-22T15:29:25.000Z</time>
      </trkpt>
      <trkpt lat="45.59109" lon="4.31455">
        <ele>390.60000610352</ele>
        <time>2015-08-22T15:29:30.000Z</time>
      </trkpt>
      <trkpt lat="45.59084" lon="4.31457">
        <ele>389.60000610352</ele>
        <time>2015-08-22T15:29:34.000Z</time>
      </trkpt>
      <trkpt lat="45.59078" lon="4.31457">
        <ele>389.39999389648</ele>
        <time>2015-08-22T15:29:35.000Z</time>
      </trkpt>
      <trkpt lat="45.59057" lon="4.31455">
        <ele>388</ele>
        <time>2015-08-22T15:29:38.000Z</time>
      </trkpt>
      <trkpt lat="45.59036" lon="4.31451">
        <ele>386.20001220703</ele>
        <time>2015-08-22T15:29:41.000Z</time>
      </trkpt>
      <trkpt lat="45.59014" lon="4.31444">
        <ele>384</ele>
        <time>2015-08-22T15:29:44.000Z</time>
      </trkpt>
      <trkpt lat="45.58989" lon="4.31437">
        <ele>381.79998779297</ele>
        <time>2015-08-22T15:29:47.000Z</time>
      </trkpt>
      <trkpt lat="45.58981" lon="4.31433">
        <ele>381</ele>
        <time>2015-08-22T15:29:48.000Z</time>
      </trkpt>
      <trkpt lat="45.58957" lon="4.31418">
        <ele>378.60000610352</ele>
        <time>2015-08-22T15:29:51.000Z</time>
      </trkpt>
      <trkpt lat="45.58939" lon="4.31416">
        <ele>378</ele>
        <time>2015-08-22T15:29:53.000Z</time>
      </trkpt>
      <trkpt lat="45.58913" lon="4.31411">
        <ele>376.20001220703</ele>
        <time>2015-08-22T15:29:56.000Z</time>
      </trkpt>
      <trkpt lat="45.58895" lon="4.31406">
        <ele>374.79998779297</ele>
        <time>2015-08-22T15:29:58.000Z</time>
      </trkpt>
      <trkpt lat="45.58875" lon="4.31401">
        <ele>373.60000610352</ele>
        <time>2015-08-22T15:30:00.000Z</time>
      </trkpt>
      <trkpt lat="45.58856" lon="4.31395">
        <ele>373</ele>
        <time>2015-08-22T15:30:02.000Z</time>
      </trkpt>
      <trkpt lat="45.58837" lon="4.3139">
        <ele>372.39999389648</ele>
        <time>2015-08-22T15:30:04.000Z</time>
      </trkpt>
      <trkpt lat="45.58818" lon="4.31385">
        <ele>371.79998779297</ele>
        <time>2015-08-22T15:30:06.000Z</time>
      </trkpt>
      <trkpt lat="45.588" lon="4.3138">
        <ele>371</ele>
        <time>2015-08-22T15:30:08.000Z</time>
      </trkpt>
      <trkpt lat="45.58774" lon="4.31374">
        <ele>372.39999389648</ele>
        <time>2015-08-22T15:30:11.000Z</time>
      </trkpt>
      <trkpt lat="45.58757" lon="4.31368">
        <ele>373.20001220703</ele>
        <time>2015-08-22T15:30:13.000Z</time>
      </trkpt>
      <trkpt lat="45.58737" lon="4.31346">
        <ele>374</ele>
        <time>2015-08-22T15:30:16.000Z</time>
      </trkpt>
      <trkpt lat="45.58728" lon="4.31327">
        <ele>374.60000610352</ele>
        <time>2015-08-22T15:30:18.000Z</time>
      </trkpt>
      <trkpt lat="45.58716" lon="4.31301">
        <ele>375</ele>
        <time>2015-08-22T15:30:21.000Z</time>
      </trkpt>
      <trkpt lat="45.58708" lon="4.31285">
        <ele>375.20001220703</ele>
        <time>2015-08-22T15:30:23.000Z</time>
      </trkpt>
      <trkpt lat="45.58698" lon="4.31263">
        <ele>375.39999389648</ele>
        <time>2015-08-22T15:30:26.000Z</time>
      </trkpt>
      <trkpt lat="45.58694" lon="4.31256">
        <ele>375.60000610352</ele>
        <time>2015-08-22T15:30:27.000Z</time>
      </trkpt>
      <trkpt lat="45.58684" lon="4.31236">
        <ele>375.79998779297</ele>
        <time>2015-08-22T15:30:30.000Z</time>
      </trkpt>
      <trkpt lat="45.58673" lon="4.31215">
        <ele>376</ele>
        <time>2015-08-22T15:30:33.000Z</time>
      </trkpt>
      <trkpt lat="45.5866" lon="4.31187">
        <ele>376.39999389648</ele>
        <time>2015-08-22T15:30:37.000Z</time>
      </trkpt>
      <trkpt lat="45.58646" lon="4.31161">
        <ele>376.79998779297</ele>
        <time>2015-08-22T15:30:41.000Z</time>
      </trkpt>
      <trkpt lat="45.58634" lon="4.3114">
        <ele>377</ele>
        <time>2015-08-22T15:30:44.000Z</time>
      </trkpt>
      <trkpt lat="45.58622" lon="4.31121">
        <ele>377.20001220703</ele>
        <time>2015-08-22T15:30:47.000Z</time>
      </trkpt>
      <trkpt lat="45.58617" lon="4.31117">
        <ele>377.20001220703</ele>
        <time>2015-08-22T15:30:48.000Z</time>
      </trkpt>
      <trkpt lat="45.58605" lon="4.31138">
        <ele>377.39999389648</ele>
        <time>2015-08-22T15:30:52.000Z</time>
      </trkpt>
      <trkpt lat="45.58589" lon="4.31157">
        <ele>377.39999389648</ele>
        <time>2015-08-22T15:30:56.000Z</time>
      </trkpt>
      <trkpt lat="45.58579" lon="4.31163">
        <ele>377.39999389648</ele>
        <time>2015-08-22T15:30:58.000Z</time>
      </trkpt>
      <trkpt lat="45.58566" lon="4.31172">
        <ele>377.39999389648</ele>
        <time>2015-08-22T15:31:01.000Z</time>
      </trkpt>
      <trkpt lat="45.58558" lon="4.31179">
        <ele>377.20001220703</ele>
        <time>2015-08-22T15:31:03.000Z</time>
      </trkpt>
      <trkpt lat="45.58549" lon="4.31194">
        <ele>377.20001220703</ele>
        <time>2015-08-22T15:31:06.000Z</time>
      </trkpt>
      <trkpt lat="45.58542" lon="4.3122">
        <ele>377.20001220703</ele>
        <time>2015-08-22T15:31:10.000Z</time>
      </trkpt>
      <trkpt lat="45.58542" lon="4.31241">
        <ele>377.20001220703</ele>
        <time>2015-08-22T15:31:13.000Z</time>
      </trkpt>
      <trkpt lat="45.58543" lon="4.31267">
        <ele>377.20001220703</ele>
        <time>2015-08-22T15:31:17.000Z</time>
      </trkpt>
      <trkpt lat="45.58546" lon="4.31294">
        <ele>377.39999389648</ele>
        <time>2015-08-22T15:31:21.000Z</time>
      </trkpt>
      <trkpt lat="45.58548" lon="4.31301">
        <ele>377.60000610352</ele>
        <time>2015-08-22T15:31:22.000Z</time>
      </trkpt>
      <trkpt lat="45.58557" lon="4.31325">
        <ele>378</ele>
        <time>2015-08-22T15:31:26.000Z</time>
      </trkpt>
      <trkpt lat="45.58562" lon="4.31351">
        <ele>378.60000610352</ele>
        <time>2015-08-22T15:31:30.000Z</time>
      </trkpt>
      <trkpt lat="45.58562" lon="4.31357">
        <ele>378.79998779297</ele>
        <time>2015-08-22T15:31:31.000Z</time>
      </trkpt>
      <trkpt lat="45.58562" lon="4.31388">
        <ele>379.20001220703</ele>
        <time>2015-08-22T15:31:36.000Z</time>
      </trkpt>
      <trkpt lat="45.58563" lon="4.31414">
        <ele>379.60000610352</ele>
        <time>2015-08-22T15:31:40.000Z</time>
      </trkpt>
      <trkpt lat="45.58564" lon="4.31442">
        <ele>380</ele>
        <time>2015-08-22T15:31:44.000Z</time>
      </trkpt>
      <trkpt lat="45.58564" lon="4.31456">
        <ele>380.20001220703</ele>
        <time>2015-08-22T15:31:46.000Z</time>
      </trkpt>
      <trkpt lat="45.58548" lon="4.31462">
        <ele>380.20001220703</ele>
        <time>2015-08-22T15:31:50.000Z</time>
      </trkpt>
      <trkpt lat="45.58538" lon="4.31459">
        <ele>380.20001220703</ele>
        <time>2015-08-22T15:31:52.000Z</time>
      </trkpt>
      <trkpt lat="45.58519" lon="4.31452">
        <ele>380</ele>
        <time>2015-08-22T15:31:56.000Z</time>
      </trkpt>
      <trkpt lat="45.58499" lon="4.31447">
        <ele>380</ele>
        <time>2015-08-22T15:32:00.000Z</time>
      </trkpt>
      <trkpt lat="45.58481" lon="4.31442">
        <ele>380</ele>
        <time>2015-08-22T15:32:04.000Z</time>
      </trkpt>
      <trkpt lat="45.58462" lon="4.31436">
        <ele>380</ele>
        <time>2015-08-22T15:32:08.000Z</time>
      </trkpt>
      <trkpt lat="45.58444" lon="4.31431">
        <ele>380.39999389648</ele>
        <time>2015-08-22T15:32:12.000Z</time>
      </trkpt>
      <trkpt lat="45.58426" lon="4.31426">
        <ele>380.79998779297</ele>
        <time>2015-08-22T15:32:16.000Z</time>
      </trkpt>
      <trkpt lat="45.58408" lon="4.31421">
        <ele>381.20001220703</ele>
        <time>2015-08-22T15:32:20.000Z</time>
      </trkpt>
      <trkpt lat="45.58389" lon="4.31418">
        <ele>381.60000610352</ele>
        <time>2015-08-22T15:32:24.000Z</time>
      </trkpt>
      <trkpt lat="45.58376" lon="4.31414">
        <ele>382</ele>
        <time>2015-08-22T15:32:27.000Z</time>
      </trkpt>
      <trkpt lat="45.58369" lon="4.3141">
        <ele>382.20001220703</ele>
        <time>2015-08-22T15:32:30.000Z</time>
      </trkpt>
      <trkpt lat="45.58352" lon="4.31406">
        <ele>382.60000610352</ele>
        <time>2015-08-22T15:32:48.000Z</time>
      </trkpt>
      <trkpt lat="45.58331" lon="4.314">
        <ele>383.20001220703</ele>
        <time>2015-08-22T15:32:52.000Z</time>
      </trkpt>
      <trkpt lat="45.5831" lon="4.31396">
        <ele>383.79998779297</ele>
        <time>2015-08-22T15:32:56.000Z</time>
      </trkpt>
      <trkpt lat="45.58289" lon="4.31393">
        <ele>384.39999389648</ele>
        <time>2015-08-22T15:33:00.000Z</time>
      </trkpt>
      <trkpt lat="45.58284" lon="4.31392">
        <ele>384.60000610352</ele>
        <time>2015-08-22T15:33:01.000Z</time>
      </trkpt>
      <trkpt lat="45.58267" lon="4.31393">
        <ele>385.20001220703</ele>
        <time>2015-08-22T15:33:05.000Z</time>
      </trkpt>
      <trkpt lat="45.58256" lon="4.31414">
        <ele>385.39999389648</ele>
        <time>2015-08-22T15:33:09.000Z</time>
      </trkpt>
      <trkpt lat="45.58251" lon="4.31427">
        <ele>385.39999389648</ele>
        <time>2015-08-22T15:33:11.000Z</time>
      </trkpt>
      <trkpt lat="45.58241" lon="4.31455">
        <ele>385.60000610352</ele>
        <time>2015-08-22T15:33:15.000Z</time>
      </trkpt>
      <trkpt lat="45.5823" lon="4.31483">
        <ele>386.20001220703</ele>
        <time>2015-08-22T15:33:19.000Z</time>
      </trkpt>
      <trkpt lat="45.58219" lon="4.31509">
        <ele>386.79998779297</ele>
        <time>2015-08-22T15:33:23.000Z</time>
      </trkpt>
      <trkpt lat="45.58206" lon="4.31537">
        <ele>387.60000610352</ele>
        <time>2015-08-22T15:33:27.000Z</time>
      </trkpt>
      <trkpt lat="45.58192" lon="4.31564">
        <ele>388.39999389648</ele>
        <time>2015-08-22T15:33:31.000Z</time>
      </trkpt>
      <trkpt lat="45.58176" lon="4.3159">
        <ele>389.60000610352</ele>
        <time>2015-08-22T15:33:35.000Z</time>
      </trkpt>
      <trkpt lat="45.58161" lon="4.31614">
        <ele>391.39999389648</ele>
        <time>2015-08-22T15:33:39.000Z</time>
      </trkpt>
      <trkpt lat="45.58146" lon="4.31637">
        <ele>392.39999389648</ele>
        <time>2015-08-22T15:33:43.000Z</time>
      </trkpt>
      <trkpt lat="45.58131" lon="4.3166">
        <ele>393</ele>
        <time>2015-08-22T15:33:47.000Z</time>
      </trkpt>
      <trkpt lat="45.58117" lon="4.31684">
        <ele>393.39999389648</ele>
        <time>2015-08-22T15:33:51.000Z</time>
      </trkpt>
      <trkpt lat="45.58103" lon="4.31705">
        <ele>394.20001220703</ele>
        <time>2015-08-22T15:33:55.000Z</time>
      </trkpt>
      <trkpt lat="45.5809" lon="4.31725">
        <ele>395</ele>
        <time>2015-08-22T15:33:59.000Z</time>
      </trkpt>
      <trkpt lat="45.58078" lon="4.31743">
        <ele>395.60000610352</ele>
        <time>2015-08-22T15:34:03.000Z</time>
      </trkpt>
      <trkpt lat="45.58063" lon="4.31765">
        <ele>396.39999389648</ele>
        <time>2015-08-22T15:34:08.000Z</time>
      </trkpt>
      <trkpt lat="45.58047" lon="4.31784">
        <ele>397.20001220703</ele>
        <time>2015-08-22T15:34:13.000Z</time>
      </trkpt>
      <trkpt lat="45.58031" lon="4.31802">
        <ele>398.60000610352</ele>
        <time>2015-08-22T15:34:18.000Z</time>
      </trkpt>
      <trkpt lat="45.58028" lon="4.31806">
        <ele>398.79998779297</ele>
        <time>2015-08-22T15:34:19.000Z</time>
      </trkpt>
      <trkpt lat="45.58015" lon="4.31827">
        <ele>400</ele>
        <time>2015-08-22T15:34:24.000Z</time>
      </trkpt>
      <trkpt lat="45.58004" lon="4.3185">
        <ele>400.79998779297</ele>
        <time>2015-08-22T15:34:29.000Z</time>
      </trkpt>
      <trkpt lat="45.57994" lon="4.31872">
        <ele>401.39999389648</ele>
        <time>2015-08-22T15:34:34.000Z</time>
      </trkpt>
      <trkpt lat="45.57992" lon="4.31876">
        <ele>401.39999389648</ele>
        <time>2015-08-22T15:34:35.000Z</time>
      </trkpt>
      <trkpt lat="45.57984" lon="4.31894">
        <ele>402</ele>
        <time>2015-08-22T15:34:39.000Z</time>
      </trkpt>
      <trkpt lat="45.57976" lon="4.31922">
        <ele>403</ele>
        <time>2015-08-22T15:34:45.000Z</time>
      </trkpt>
      <trkpt lat="45.57968" lon="4.31945">
        <ele>404</ele>
        <time>2015-08-22T15:34:50.000Z</time>
      </trkpt>
      <trkpt lat="45.5796" lon="4.31971">
        <ele>405.60000610352</ele>
        <time>2015-08-22T15:34:56.000Z</time>
      </trkpt>
      <trkpt lat="45.57951" lon="4.31994">
        <ele>407.20001220703</ele>
        <time>2015-08-22T15:35:02.000Z</time>
      </trkpt>
      <trkpt lat="45.57941" lon="4.32018">
        <ele>409</ele>
        <time>2015-08-22T15:35:10.000Z</time>
      </trkpt>
      <trkpt lat="45.57934" lon="4.32044">
        <ele>410.39999389648</ele>
        <time>2015-08-22T15:35:18.000Z</time>
      </trkpt>
      <trkpt lat="45.57927" lon="4.32069">
        <ele>411.39999389648</ele>
        <time>2015-08-22T15:35:26.000Z</time>
      </trkpt>
      <trkpt lat="45.57919" lon="4.32097">
        <ele>412.20001220703</ele>
        <time>2015-08-22T15:35:34.000Z</time>
      </trkpt>
      <trkpt lat="45.57916" lon="4.32124">
        <ele>413</ele>
        <time>2015-08-22T15:35:41.000Z</time>
      </trkpt>
      <trkpt lat="45.57929" lon="4.32143">
        <ele>413.60000610352</ele>
        <time>2015-08-22T15:35:48.000Z</time>
      </trkpt>
      <trkpt lat="45.5795" lon="4.32153">
        <ele>413.20001220703</ele>
        <time>2015-08-22T15:35:54.000Z</time>
      </trkpt>
      <trkpt lat="45.57971" lon="4.32155">
        <ele>412.39999389648</ele>
        <time>2015-08-22T15:35:59.000Z</time>
      </trkpt>
      <trkpt lat="45.57989" lon="4.32162">
        <ele>411.60000610352</ele>
        <time>2015-08-22T15:36:03.000Z</time>
      </trkpt>
      <trkpt lat="45.58008" lon="4.32178">
        <ele>411.60000610352</ele>
        <time>2015-08-22T15:36:07.000Z</time>
      </trkpt>
      <trkpt lat="45.58025" lon="4.322">
        <ele>411.60000610352</ele>
        <time>2015-08-22T15:36:11.000Z</time>
      </trkpt>
      <trkpt lat="45.58039" lon="4.32225">
        <ele>411</ele>
        <time>2015-08-22T15:36:15.000Z</time>
      </trkpt>
      <trkpt lat="45.58046" lon="4.32238">
        <ele>410.79998779297</ele>
        <time>2015-08-22T15:36:17.000Z</time>
      </trkpt>
      <trkpt lat="45.58057" lon="4.32264">
        <ele>410.60000610352</ele>
        <time>2015-08-22T15:36:21.000Z</time>
      </trkpt>
      <trkpt lat="45.58059" lon="4.3227">
        <ele>410.60000610352</ele>
        <time>2015-08-22T15:36:22.000Z</time>
      </trkpt>
      <trkpt lat="45.58066" lon="4.32296">
        <ele>411</ele>
        <time>2015-08-22T15:36:26.000Z</time>
      </trkpt>
      <trkpt lat="45.58067" lon="4.32302">
        <ele>411.20001220703</ele>
        <time>2015-08-22T15:36:27.000Z</time>
      </trkpt>
      <trkpt lat="45.58072" lon="4.32329">
        <ele>412</ele>
        <time>2015-08-22T15:36:31.000Z</time>
      </trkpt>
      <trkpt lat="45.58078" lon="4.32354">
        <ele>412.79998779297</ele>
        <time>2015-08-22T15:36:35.000Z</time>
      </trkpt>
      <trkpt lat="45.58088" lon="4.32381">
        <ele>413.39999389648</ele>
        <time>2015-08-22T15:36:40.000Z</time>
      </trkpt>
      <trkpt lat="45.58091" lon="4.32386">
        <ele>413.39999389648</ele>
        <time>2015-08-22T15:36:41.000Z</time>
      </trkpt>
      <trkpt lat="45.58103" lon="4.32401">
        <ele>413.39999389648</ele>
        <time>2015-08-22T15:36:45.000Z</time>
      </trkpt>
      <trkpt lat="45.58119" lon="4.32418">
        <ele>413.60000610352</ele>
        <time>2015-08-22T15:36:50.000Z</time>
      </trkpt>
      <trkpt lat="45.58137" lon="4.32436">
        <ele>413.39999389648</ele>
        <time>2015-08-22T15:36:55.000Z</time>
      </trkpt>
      <trkpt lat="45.58156" lon="4.32451">
        <ele>413</ele>
        <time>2015-08-22T15:36:59.000Z</time>
      </trkpt>
      <trkpt lat="45.58176" lon="4.32468">
        <ele>412.79998779297</ele>
        <time>2015-08-22T15:37:03.000Z</time>
      </trkpt>
      <trkpt lat="45.58186" lon="4.32476">
        <ele>412.60000610352</ele>
        <time>2015-08-22T15:37:05.000Z</time>
      </trkpt>
      <trkpt lat="45.58203" lon="4.32486">
        <ele>412.20001220703</ele>
        <time>2015-08-22T15:37:08.000Z</time>
      </trkpt>
      <trkpt lat="45.58219" lon="4.32497">
        <ele>412</ele>
        <time>2015-08-22T15:37:11.000Z</time>
      </trkpt>
      <trkpt lat="45.58235" lon="4.32509">
        <ele>412</ele>
        <time>2015-08-22T15:37:14.000Z</time>
      </trkpt>
      <trkpt lat="45.58245" lon="4.32517">
        <ele>411.79998779297</ele>
        <time>2015-08-22T15:37:16.000Z</time>
      </trkpt>
      <trkpt lat="45.58255" lon="4.32522">
        <ele>411.79998779297</ele>
        <time>2015-08-22T15:37:18.000Z</time>
      </trkpt>
      <trkpt lat="45.58275" lon="4.32526">
        <ele>411</ele>
        <time>2015-08-22T15:37:22.000Z</time>
      </trkpt>
      <trkpt lat="45.5828" lon="4.32525">
        <ele>410.60000610352</ele>
        <time>2015-08-22T15:37:23.000Z</time>
      </trkpt>
      <trkpt lat="45.58297" lon="4.32521">
        <ele>409.60000610352</ele>
        <time>2015-08-22T15:37:26.000Z</time>
      </trkpt>
      <trkpt lat="45.5832" lon="4.32524">
        <ele>408.20001220703</ele>
        <time>2015-08-22T15:37:30.000Z</time>
      </trkpt>
      <trkpt lat="45.58325" lon="4.32526">
        <ele>408</ele>
        <time>2015-08-22T15:37:31.000Z</time>
      </trkpt>
      <trkpt lat="45.58333" lon="4.32549">
        <ele>408</ele>
        <time>2015-08-22T15:37:35.000Z</time>
      </trkpt>
      <trkpt lat="45.58333" lon="4.32561">
        <ele>408</ele>
        <time>2015-08-22T15:37:37.000Z</time>
      </trkpt>
      <trkpt lat="45.58336" lon="4.32589">
        <ele>410</ele>
        <time>2015-08-22T15:37:42.000Z</time>
      </trkpt>
      <trkpt lat="45.58334" lon="4.32617">
        <ele>412.39999389648</ele>
        <time>2015-08-22T15:37:47.000Z</time>
      </trkpt>
      <trkpt lat="45.58332" lon="4.3264">
        <ele>413.60000610352</ele>
        <time>2015-08-22T15:37:51.000Z</time>
      </trkpt>
      <trkpt lat="45.58323" lon="4.32666">
        <ele>415.39999389648</ele>
        <time>2015-08-22T15:37:56.000Z</time>
      </trkpt>
      <trkpt lat="45.58312" lon="4.32689">
        <ele>417.39999389648</ele>
        <time>2015-08-22T15:38:01.000Z</time>
      </trkpt>
      <trkpt lat="45.58306" lon="4.32699">
        <ele>418.39999389648</ele>
        <time>2015-08-22T15:38:04.000Z</time>
      </trkpt>
      <trkpt lat="45.58291" lon="4.32717">
        <ele>418.20001220703</ele>
        <time>2015-08-22T15:38:10.000Z</time>
      </trkpt>
      <trkpt lat="45.58274" lon="4.32729">
        <ele>418.60000610352</ele>
        <time>2015-08-22T15:38:17.000Z</time>
      </trkpt>
      <trkpt lat="45.58256" lon="4.3273">
        <ele>420.20001220703</ele>
        <time>2015-08-22T15:38:24.000Z</time>
      </trkpt>
      <trkpt lat="45.58235" lon="4.32735">
        <ele>422.60000610352</ele>
        <time>2015-08-22T15:38:32.000Z</time>
      </trkpt>
      <trkpt lat="45.58218" lon="4.32745">
        <ele>424.79998779297</ele>
        <time>2015-08-22T15:38:40.000Z</time>
      </trkpt>
      <trkpt lat="45.582" lon="4.32756">
        <ele>424.60000610352</ele>
        <time>2015-08-22T15:38:48.000Z</time>
      </trkpt>
      <trkpt lat="45.58182" lon="4.32767">
        <ele>427</ele>
        <time>2015-08-22T15:38:57.000Z</time>
      </trkpt>
      <trkpt lat="45.58164" lon="4.32779">
        <ele>430</ele>
        <time>2015-08-22T15:39:06.000Z</time>
      </trkpt>
      <trkpt lat="45.58148" lon="4.32791">
        <ele>431.79998779297</ele>
        <time>2015-08-22T15:39:14.000Z</time>
      </trkpt>
      <trkpt lat="45.58131" lon="4.32803">
        <ele>433.79998779297</ele>
        <time>2015-08-22T15:39:23.000Z</time>
      </trkpt>
      <trkpt lat="45.58117" lon="4.32822">
        <ele>434.39999389648</ele>
        <time>2015-08-22T15:39:32.000Z</time>
      </trkpt>
      <trkpt lat="45.58107" lon="4.32845">
        <ele>435.20001220703</ele>
        <time>2015-08-22T15:39:41.000Z</time>
      </trkpt>
      <trkpt lat="45.58097" lon="4.32868">
        <ele>437.39999389648</ele>
        <time>2015-08-22T15:39:50.000Z</time>
      </trkpt>
      <trkpt lat="45.58087" lon="4.32892">
        <ele>437.39999389648</ele>
        <time>2015-08-22T15:39:59.000Z</time>
      </trkpt>
      <trkpt lat="45.58078" lon="4.32914">
        <ele>440.39999389648</ele>
        <time>2015-08-22T15:40:08.000Z</time>
      </trkpt>
      <trkpt lat="45.58063" lon="4.32933">
        <ele>445.20001220703</ele>
        <time>2015-08-22T15:40:18.000Z</time>
      </trkpt>
      <trkpt lat="45.58046" lon="4.32945">
        <ele>449.39999389648</ele>
        <time>2015-08-22T15:40:29.000Z</time>
      </trkpt>
      <trkpt lat="45.58032" lon="4.3296">
        <ele>451.79998779297</ele>
        <time>2015-08-22T15:40:40.000Z</time>
      </trkpt>
      <trkpt lat="45.58032" lon="4.32963">
        <ele>451.79998779297</ele>
        <time>2015-08-22T15:40:41.000Z</time>
      </trkpt>
      <trkpt lat="45.58029" lon="4.32976">
        <ele>452.79998779297</ele>
        <time>2015-08-22T15:40:46.000Z</time>
      </trkpt>
      <trkpt lat="45.58027" lon="4.32983">
        <ele>453.39999389648</ele>
        <time>2015-08-22T15:40:49.000Z</time>
      </trkpt>
      <trkpt lat="45.58021" lon="4.33">
        <ele>454.79998779297</ele>
        <time>2015-08-22T15:40:58.000Z</time>
      </trkpt>
      <trkpt lat="45.58017" lon="4.33025">
        <ele>457.79998779297</ele>
        <time>2015-08-22T15:41:09.000Z</time>
      </trkpt>
      <trkpt lat="45.58017" lon="4.33053">
        <ele>459.60000610352</ele>
        <time>2015-08-22T15:41:20.000Z</time>
      </trkpt>
      <trkpt lat="45.58007" lon="4.33075">
        <ele>462</ele>
        <time>2015-08-22T15:41:30.000Z</time>
      </trkpt>
      <trkpt lat="45.58006" lon="4.33077">
        <ele>462.20001220703</ele>
        <time>2015-08-22T15:41:31.000Z</time>
      </trkpt>
      <trkpt lat="45.57998" lon="4.33094">
        <ele>464</ele>
        <time>2015-08-22T15:41:38.000Z</time>
      </trkpt>
      <trkpt lat="45.57981" lon="4.33111">
        <ele>467</ele>
        <time>2015-08-22T15:41:46.000Z</time>
      </trkpt>
      <trkpt lat="45.57963" lon="4.33125">
        <ele>468.79998779297</ele>
        <time>2015-08-22T15:41:51.000Z</time>
      </trkpt>
      <trkpt lat="45.57948" lon="4.3314">
        <ele>470</ele>
        <time>2015-08-22T15:41:55.000Z</time>
      </trkpt>
      <trkpt lat="45.57945" lon="4.33145">
        <ele>470</ele>
        <time>2015-08-22T15:41:56.000Z</time>
      </trkpt>
      <trkpt lat="45.57933" lon="4.33166">
        <ele>470.20001220703</ele>
        <time>2015-08-22T15:42:00.000Z</time>
      </trkpt>
      <trkpt lat="45.57928" lon="4.33176">
        <ele>471</ele>
        <time>2015-08-22T15:42:02.000Z</time>
      </trkpt>
      <trkpt lat="45.57927" lon="4.33205">
        <ele>470.20001220703</ele>
        <time>2015-08-22T15:42:07.000Z</time>
      </trkpt>
      <trkpt lat="45.57925" lon="4.33234">
        <ele>467.79998779297</ele>
        <time>2015-08-22T15:42:12.000Z</time>
      </trkpt>
      <trkpt lat="45.57913" lon="4.33256">
        <ele>469.60000610352</ele>
        <time>2015-08-22T15:42:17.000Z</time>
      </trkpt>
      <trkpt lat="45.57907" lon="4.33264">
        <ele>470.79998779297</ele>
        <time>2015-08-22T15:42:19.000Z</time>
      </trkpt>
      <trkpt lat="45.57892" lon="4.33284">
        <ele>473.60000610352</ele>
        <time>2015-08-22T15:42:24.000Z</time>
      </trkpt>
      <trkpt lat="45.57881" lon="4.33296">
        <ele>475.39999389648</ele>
        <time>2015-08-22T15:42:28.000Z</time>
      </trkpt>
      <trkpt lat="45.5787" lon="4.33306">
        <ele>477</ele>
        <time>2015-08-22T15:42:32.000Z</time>
      </trkpt>
      <trkpt lat="45.57854" lon="4.33319">
        <ele>480</ele>
        <time>2015-08-22T15:42:38.000Z</time>
      </trkpt>
      <trkpt lat="45.57845" lon="4.33329">
        <ele>481.20001220703</ele>
        <time>2015-08-22T15:42:41.000Z</time>
      </trkpt>
      <trkpt lat="45.5783" lon="4.33351">
        <ele>482.39999389648</ele>
        <time>2015-08-22T15:42:47.000Z</time>
      </trkpt>
      <trkpt lat="45.57819" lon="4.33377">
        <ele>482.39999389648</ele>
        <time>2015-08-22T15:42:53.000Z</time>
      </trkpt>
      <trkpt lat="45.57808" lon="4.33401">
        <ele>481.60000610352</ele>
        <time>2015-08-22T15:42:59.000Z</time>
      </trkpt>
      <trkpt lat="45.57797" lon="4.33422">
        <ele>480.79998779297</ele>
        <time>2015-08-22T15:43:05.000Z</time>
      </trkpt>
      <trkpt lat="45.57783" lon="4.33435">
        <ele>480.79998779297</ele>
        <time>2015-08-22T15:43:12.000Z</time>
      </trkpt>
      <trkpt lat="45.57772" lon="4.33438">
        <ele>481.79998779297</ele>
        <time>2015-08-22T15:43:16.000Z</time>
      </trkpt>
      <trkpt lat="45.57754" lon="4.33444">
        <ele>483.20001220703</ele>
        <time>2015-08-22T15:43:23.000Z</time>
      </trkpt>
      <trkpt lat="45.57736" lon="4.33452">
        <ele>484.20001220703</ele>
        <time>2015-08-22T15:43:30.000Z</time>
      </trkpt>
      <trkpt lat="45.57717" lon="4.3346">
        <ele>486</ele>
        <time>2015-08-22T15:43:38.000Z</time>
      </trkpt>
      <trkpt lat="45.577" lon="4.33469">
        <ele>486.60000610352</ele>
        <time>2015-08-22T15:43:47.000Z</time>
      </trkpt>
      <trkpt lat="45.57683" lon="4.33476">
        <ele>487.60000610352</ele>
        <time>2015-08-22T15:43:54.000Z</time>
      </trkpt>
      <trkpt lat="45.57664" lon="4.33482">
        <ele>488.60000610352</ele>
        <time>2015-08-22T15:44:01.000Z</time>
      </trkpt>
      <trkpt lat="45.57646" lon="4.33487">
        <ele>489.60000610352</ele>
        <time>2015-08-22T15:44:09.000Z</time>
      </trkpt>
      <trkpt lat="45.57628" lon="4.33494">
        <ele>490.39999389648</ele>
        <time>2015-08-22T15:44:17.000Z</time>
      </trkpt>
      <trkpt lat="45.57613" lon="4.33506">
        <ele>489.79998779297</ele>
        <time>2015-08-22T15:44:26.000Z</time>
      </trkpt>
      <trkpt lat="45.57611" lon="4.33507">
        <ele>489.79998779297</ele>
        <time>2015-08-22T15:44:27.000Z</time>
      </trkpt>
      <trkpt lat="45.57597" lon="4.33512">
        <ele>491</ele>
        <time>2015-08-22T15:44:34.000Z</time>
      </trkpt>
      <trkpt lat="45.57578" lon="4.33518">
        <ele>492.79998779297</ele>
        <time>2015-08-22T15:44:44.000Z</time>
      </trkpt>
      <trkpt lat="45.57561" lon="4.33532">
        <ele>493.79998779297</ele>
        <time>2015-08-22T15:44:53.000Z</time>
      </trkpt>
      <trkpt lat="45.57544" lon="4.3354">
        <ele>495</ele>
        <time>2015-08-22T15:45:03.000Z</time>
      </trkpt>
      <trkpt lat="45.57523" lon="4.33541">
        <ele>497</ele>
        <time>2015-08-22T15:45:13.000Z</time>
      </trkpt>
      <trkpt lat="45.57503" lon="4.33541">
        <ele>499.20001220703</ele>
        <time>2015-08-22T15:45:20.000Z</time>
      </trkpt>
      <trkpt lat="45.57485" lon="4.3354">
        <ele>501.20001220703</ele>
        <time>2015-08-22T15:45:26.000Z</time>
      </trkpt>
      <trkpt lat="45.57464" lon="4.3354">
        <ele>503.39999389648</ele>
        <time>2015-08-22T15:45:33.000Z</time>
      </trkpt>
      <trkpt lat="45.57443" lon="4.33538">
        <ele>504.79998779297</ele>
        <time>2015-08-22T15:45:40.000Z</time>
      </trkpt>
      <trkpt lat="45.57425" lon="4.33536">
        <ele>506.20001220703</ele>
        <time>2015-08-22T15:45:46.000Z</time>
      </trkpt>
      <trkpt lat="45.57404" lon="4.33536">
        <ele>507.39999389648</ele>
        <time>2015-08-22T15:45:52.000Z</time>
      </trkpt>
      <trkpt lat="45.57383" lon="4.33536">
        <ele>508.39999389648</ele>
        <time>2015-08-22T15:45:58.000Z</time>
      </trkpt>
      <trkpt lat="45.57364" lon="4.33534">
        <ele>507</ele>
        <time>2015-08-22T15:46:03.000Z</time>
      </trkpt>
      <trkpt lat="45.57343" lon="4.33534">
        <ele>505.20001220703</ele>
        <time>2015-08-22T15:46:08.000Z</time>
      </trkpt>
      <trkpt lat="45.57322" lon="4.33539">
        <ele>503</ele>
        <time>2015-08-22T15:46:13.000Z</time>
      </trkpt>
      <trkpt lat="45.57303" lon="4.33547">
        <ele>501.60000610352</ele>
        <time>2015-08-22T15:46:19.000Z</time>
      </trkpt>
      <trkpt lat="45.57301" lon="4.3355">
        <ele>501.60000610352</ele>
        <time>2015-08-22T15:46:20.000Z</time>
      </trkpt>
      <trkpt lat="45.57291" lon="4.33573">
        <ele>500.20001220703</ele>
        <time>2015-08-22T15:46:26.000Z</time>
      </trkpt>
      <trkpt lat="45.57286" lon="4.336">
        <ele>499.20001220703</ele>
        <time>2015-08-22T15:46:31.000Z</time>
      </trkpt>
      <trkpt lat="45.57281" lon="4.33628">
        <ele>498.60000610352</ele>
        <time>2015-08-22T15:46:36.000Z</time>
      </trkpt>
      <trkpt lat="45.57275" lon="4.33658">
        <ele>496.79998779297</ele>
        <time>2015-08-22T15:46:41.000Z</time>
      </trkpt>
      <trkpt lat="45.57271" lon="4.33683">
        <ele>496.39999389648</ele>
        <time>2015-08-22T15:46:45.000Z</time>
      </trkpt>
      <trkpt lat="45.57265" lon="4.33709">
        <ele>497</ele>
        <time>2015-08-22T15:46:49.000Z</time>
      </trkpt>
      <trkpt lat="45.5726" lon="4.33736">
        <ele>497</ele>
        <time>2015-08-22T15:46:53.000Z</time>
      </trkpt>
      <trkpt lat="45.57255" lon="4.33762">
        <ele>497</ele>
        <time>2015-08-22T15:46:57.000Z</time>
      </trkpt>
      <trkpt lat="45.57251" lon="4.33787">
        <ele>496.60000610352</ele>
        <time>2015-08-22T15:47:01.000Z</time>
      </trkpt>
      <trkpt lat="45.57246" lon="4.33813">
        <ele>495.79998779297</ele>
        <time>2015-08-22T15:47:05.000Z</time>
      </trkpt>
      <trkpt lat="45.57241" lon="4.3384">
        <ele>494.79998779297</ele>
        <time>2015-08-22T15:47:09.000Z</time>
      </trkpt>
      <trkpt lat="45.57235" lon="4.33868">
        <ele>494</ele>
        <time>2015-08-22T15:47:13.000Z</time>
      </trkpt>
      <trkpt lat="45.57226" lon="4.33899">
        <ele>493.79998779297</ele>
        <time>2015-08-22T15:47:17.000Z</time>
      </trkpt>
      <trkpt lat="45.57218" lon="4.33923">
        <ele>493.60000610352</ele>
        <time>2015-08-22T15:47:20.000Z</time>
      </trkpt>
      <trkpt lat="45.57207" lon="4.33946">
        <ele>493.60000610352</ele>
        <time>2015-08-22T15:47:23.000Z</time>
      </trkpt>
      <trkpt lat="45.57203" lon="4.33953">
        <ele>493.60000610352</ele>
        <time>2015-08-22T15:47:24.000Z</time>
      </trkpt>
      <trkpt lat="45.57199" lon="4.3396">
        <ele>493.60000610352</ele>
        <time>2015-08-22T15:47:25.000Z</time>
      </trkpt>
      <trkpt lat="45.57186" lon="4.33983">
        <ele>493.20001220703</ele>
        <time>2015-08-22T15:47:28.000Z</time>
      </trkpt>
      <trkpt lat="45.57182" lon="4.3399">
        <ele>493</ele>
        <time>2015-08-22T15:47:29.000Z</time>
      </trkpt>
      <trkpt lat="45.5717" lon="4.34014">
        <ele>493</ele>
        <time>2015-08-22T15:47:32.000Z</time>
      </trkpt>
      <trkpt lat="45.5716" lon="4.34037">
        <ele>493</ele>
        <time>2015-08-22T15:47:35.000Z</time>
      </trkpt>
      <trkpt lat="45.57158" lon="4.34045">
        <ele>493.20001220703</ele>
        <time>2015-08-22T15:47:36.000Z</time>
      </trkpt>
      <trkpt lat="45.57152" lon="4.34075">
        <ele>493</ele>
        <time>2015-08-22T15:47:40.000Z</time>
      </trkpt>
      <trkpt lat="45.5715" lon="4.34103">
        <ele>492.39999389648</ele>
        <time>2015-08-22T15:47:44.000Z</time>
      </trkpt>
      <trkpt lat="45.5715" lon="4.3412">
        <ele>492.79998779297</ele>
        <time>2015-08-22T15:47:47.000Z</time>
      </trkpt>
      <trkpt lat="45.57153" lon="4.34148">
        <ele>494.60000610352</ele>
        <time>2015-08-22T15:47:52.000Z</time>
      </trkpt>
      <trkpt lat="45.57156" lon="4.34174">
        <ele>495.79998779297</ele>
        <time>2015-08-22T15:47:57.000Z</time>
      </trkpt>
      <trkpt lat="45.57159" lon="4.342">
        <ele>497.20001220703</ele>
        <time>2015-08-22T15:48:02.000Z</time>
      </trkpt>
      <trkpt lat="45.5716" lon="4.34226">
        <ele>498.60000610352</ele>
        <time>2015-08-22T15:48:07.000Z</time>
      </trkpt>
      <trkpt lat="45.57159" lon="4.34255">
        <ele>500</ele>
        <time>2015-08-22T15:48:13.000Z</time>
      </trkpt>
      <trkpt lat="45.57158" lon="4.34283">
        <ele>501.39999389648</ele>
        <time>2015-08-22T15:48:20.000Z</time>
      </trkpt>
      <trkpt lat="45.57154" lon="4.34311">
        <ele>503</ele>
        <time>2015-08-22T15:48:28.000Z</time>
      </trkpt>
      <trkpt lat="45.5715" lon="4.34337">
        <ele>504.60000610352</ele>
        <time>2015-08-22T15:48:35.000Z</time>
      </trkpt>
      <trkpt lat="45.57144" lon="4.34361">
        <ele>506</ele>
        <time>2015-08-22T15:48:42.000Z</time>
      </trkpt>
      <trkpt lat="45.57135" lon="4.34385">
        <ele>507.20001220703</ele>
        <time>2015-08-22T15:48:49.000Z</time>
      </trkpt>
      <trkpt lat="45.57125" lon="4.34409">
        <ele>509.20001220703</ele>
        <time>2015-08-22T15:48:56.000Z</time>
      </trkpt>
      <trkpt lat="45.57114" lon="4.34433">
        <ele>511</ele>
        <time>2015-08-22T15:49:03.000Z</time>
      </trkpt>
      <trkpt lat="45.57104" lon="4.34457">
        <ele>512</ele>
        <time>2015-08-22T15:49:10.000Z</time>
      </trkpt>
      <trkpt lat="45.57093" lon="4.34482">
        <ele>512.79998779297</ele>
        <time>2015-08-22T15:49:17.000Z</time>
      </trkpt>
      <trkpt lat="45.57081" lon="4.34507">
        <ele>513</ele>
        <time>2015-08-22T15:49:24.000Z</time>
      </trkpt>
      <trkpt lat="45.5707" lon="4.34532">
        <ele>513</ele>
        <time>2015-08-22T15:49:31.000Z</time>
      </trkpt>
      <trkpt lat="45.5706" lon="4.34555">
        <ele>513.59997558594</ele>
        <time>2015-08-22T15:49:37.000Z</time>
      </trkpt>
      <trkpt lat="45.5705" lon="4.34579">
        <ele>513.59997558594</ele>
        <time>2015-08-22T15:49:43.000Z</time>
      </trkpt>
      <trkpt lat="45.57042" lon="4.34604">
        <ele>514.59997558594</ele>
        <time>2015-08-22T15:49:49.000Z</time>
      </trkpt>
      <trkpt lat="45.57041" lon="4.34631">
        <ele>515.59997558594</ele>
        <time>2015-08-22T15:49:55.000Z</time>
      </trkpt>
      <trkpt lat="45.57046" lon="4.34658">
        <ele>516.40002441406</ele>
        <time>2015-08-22T15:50:01.000Z</time>
      </trkpt>
      <trkpt lat="45.57058" lon="4.34677">
        <ele>517.40002441406</ele>
        <time>2015-08-22T15:50:06.000Z</time>
      </trkpt>
      <trkpt lat="45.57074" lon="4.34689">
        <ele>518.59997558594</ele>
        <time>2015-08-22T15:50:11.000Z</time>
      </trkpt>
      <trkpt lat="45.57091" lon="4.34695">
        <ele>519.79998779297</ele>
        <time>2015-08-22T15:50:16.000Z</time>
      </trkpt>
      <trkpt lat="45.5711" lon="4.34701">
        <ele>521</ele>
        <time>2015-08-22T15:50:21.000Z</time>
      </trkpt>
      <trkpt lat="45.57128" lon="4.34705">
        <ele>522</ele>
        <time>2015-08-22T15:50:26.000Z</time>
      </trkpt>
      <trkpt lat="45.57149" lon="4.34711">
        <ele>522.79998779297</ele>
        <time>2015-08-22T15:50:32.000Z</time>
      </trkpt>
      <trkpt lat="45.57168" lon="4.34718">
        <ele>523.59997558594</ele>
        <time>2015-08-22T15:50:37.000Z</time>
      </trkpt>
      <trkpt lat="45.57185" lon="4.3473">
        <ele>524.40002441406</ele>
        <time>2015-08-22T15:50:42.000Z</time>
      </trkpt>
      <trkpt lat="45.57202" lon="4.34744">
        <ele>525.40002441406</ele>
        <time>2015-08-22T15:50:47.000Z</time>
      </trkpt>
      <trkpt lat="45.57219" lon="4.34759">
        <ele>526.20001220703</ele>
        <time>2015-08-22T15:50:52.000Z</time>
      </trkpt>
      <trkpt lat="45.57236" lon="4.34775">
        <ele>526.59997558594</ele>
        <time>2015-08-22T15:50:57.000Z</time>
      </trkpt>
      <trkpt lat="45.57252" lon="4.34791">
        <ele>526.79998779297</ele>
        <time>2015-08-22T15:51:02.000Z</time>
      </trkpt>
      <trkpt lat="45.57269" lon="4.34808">
        <ele>526.79998779297</ele>
        <time>2015-08-22T15:51:07.000Z</time>
      </trkpt>
      <trkpt lat="45.57277" lon="4.34823">
        <ele>526.79998779297</ele>
        <time>2015-08-22T15:51:10.000Z</time>
      </trkpt>
      <trkpt lat="45.57262" lon="4.34841">
        <ele>527.59997558594</ele>
        <time>2015-08-22T15:51:15.000Z</time>
      </trkpt>
      <trkpt lat="45.57255" lon="4.34845">
        <ele>528</ele>
        <time>2015-08-22T15:51:17.000Z</time>
      </trkpt>
      <trkpt lat="45.57238" lon="4.3486">
        <ele>529.20001220703</ele>
        <time>2015-08-22T15:51:22.000Z</time>
      </trkpt>
      <trkpt lat="45.5722" lon="4.34871">
        <ele>530.20001220703</ele>
        <time>2015-08-22T15:51:27.000Z</time>
      </trkpt>
      <trkpt lat="45.57201" lon="4.34879">
        <ele>531</ele>
        <time>2015-08-22T15:51:32.000Z</time>
      </trkpt>
      <trkpt lat="45.57193" lon="4.34882">
        <ele>531.40002441406</ele>
        <time>2015-08-22T15:51:34.000Z</time>
      </trkpt>
      <trkpt lat="45.57174" lon="4.34888">
        <ele>532</ele>
        <time>2015-08-22T15:51:39.000Z</time>
      </trkpt>
      <trkpt lat="45.57155" lon="4.34894">
        <ele>532.59997558594</ele>
        <time>2015-08-22T15:51:44.000Z</time>
      </trkpt>
      <trkpt lat="45.57136" lon="4.34903">
        <ele>533.40002441406</ele>
        <time>2015-08-22T15:51:49.000Z</time>
      </trkpt>
      <trkpt lat="45.57118" lon="4.34914">
        <ele>533.20001220703</ele>
        <time>2015-08-22T15:51:54.000Z</time>
      </trkpt>
      <trkpt lat="45.57099" lon="4.34925">
        <ele>533.40002441406</ele>
        <time>2015-08-22T15:51:59.000Z</time>
      </trkpt>
      <trkpt lat="45.57081" lon="4.34937">
        <ele>534.40002441406</ele>
        <time>2015-08-22T15:52:04.000Z</time>
      </trkpt>
      <trkpt lat="45.57064" lon="4.34948">
        <ele>535.20001220703</ele>
        <time>2015-08-22T15:52:09.000Z</time>
      </trkpt>
      <trkpt lat="45.57047" lon="4.34959">
        <ele>535.40002441406</ele>
        <time>2015-08-22T15:52:14.000Z</time>
      </trkpt>
      <trkpt lat="45.5703" lon="4.34969">
        <ele>535.20001220703</ele>
        <time>2015-08-22T15:52:19.000Z</time>
      </trkpt>
      <trkpt lat="45.57011" lon="4.34978">
        <ele>535</ele>
        <time>2015-08-22T15:52:24.000Z</time>
      </trkpt>
      <trkpt lat="45.56993" lon="4.34985">
        <ele>535</ele>
        <time>2015-08-22T15:52:29.000Z</time>
      </trkpt>
      <trkpt lat="45.56972" lon="4.34993">
        <ele>535.40002441406</ele>
        <time>2015-08-22T15:52:35.000Z</time>
      </trkpt>
      <trkpt lat="45.56953" lon="4.35001">
        <ele>536.40002441406</ele>
        <time>2015-08-22T15:52:41.000Z</time>
      </trkpt>
      <trkpt lat="45.56936" lon="4.35012">
        <ele>537.40002441406</ele>
        <time>2015-08-22T15:52:46.000Z</time>
      </trkpt>
      <trkpt lat="45.56921" lon="4.35027">
        <ele>538.40002441406</ele>
        <time>2015-08-22T15:52:51.000Z</time>
      </trkpt>
      <trkpt lat="45.56905" lon="4.35042">
        <ele>539.40002441406</ele>
        <time>2015-08-22T15:52:56.000Z</time>
      </trkpt>
      <trkpt lat="45.56888" lon="4.35056">
        <ele>540</ele>
        <time>2015-08-22T15:53:01.000Z</time>
      </trkpt>
      <trkpt lat="45.56871" lon="4.35069">
        <ele>540</ele>
        <time>2015-08-22T15:53:06.000Z</time>
      </trkpt>
      <trkpt lat="45.56852" lon="4.35083">
        <ele>540.20001220703</ele>
        <time>2015-08-22T15:53:12.000Z</time>
      </trkpt>
      <trkpt lat="45.56833" lon="4.35098">
        <ele>540.20001220703</ele>
        <time>2015-08-22T15:53:18.000Z</time>
      </trkpt>
      <trkpt lat="45.56815" lon="4.35115">
        <ele>540.40002441406</ele>
        <time>2015-08-22T15:53:23.000Z</time>
      </trkpt>
      <trkpt lat="45.56802" lon="4.35132">
        <ele>539.40002441406</ele>
        <time>2015-08-22T15:53:27.000Z</time>
      </trkpt>
      <trkpt lat="45.56787" lon="4.35143">
        <ele>538.40002441406</ele>
        <time>2015-08-22T15:53:30.000Z</time>
      </trkpt>
      <trkpt lat="45.56769" lon="4.35159">
        <ele>537.20001220703</ele>
        <time>2015-08-22T15:53:34.000Z</time>
      </trkpt>
      <trkpt lat="45.5677" lon="4.35188">
        <ele>536.20001220703</ele>
        <time>2015-08-22T15:53:39.000Z</time>
      </trkpt>
      <trkpt lat="45.56757" lon="4.35205">
        <ele>535.20001220703</ele>
        <time>2015-08-22T15:53:43.000Z</time>
      </trkpt>
      <trkpt lat="45.56738" lon="4.35221">
        <ele>533.79998779297</ele>
        <time>2015-08-22T15:53:47.000Z</time>
      </trkpt>
      <trkpt lat="45.56725" lon="4.35239">
        <ele>531.40002441406</ele>
        <time>2015-08-22T15:53:51.000Z</time>
      </trkpt>
      <trkpt lat="45.56718" lon="4.35251">
        <ele>530.20001220703</ele>
        <time>2015-08-22T15:53:53.000Z</time>
      </trkpt>
      <trkpt lat="45.56704" lon="4.35274">
        <ele>527.59997558594</ele>
        <time>2015-08-22T15:53:57.000Z</time>
      </trkpt>
      <trkpt lat="45.567" lon="4.35278">
        <ele>526.79998779297</ele>
        <time>2015-08-22T15:53:58.000Z</time>
      </trkpt>
      <trkpt lat="45.5669" lon="4.35287">
        <ele>525.79998779297</ele>
        <time>2015-08-22T15:54:01.000Z</time>
      </trkpt>
      <trkpt lat="45.56672" lon="4.35299">
        <ele>524.79998779297</ele>
        <time>2015-08-22T15:54:05.000Z</time>
      </trkpt>
      <trkpt lat="45.56667" lon="4.35301">
        <ele>524.40002441406</ele>
        <time>2015-08-22T15:54:06.000Z</time>
      </trkpt>
      <trkpt lat="45.56643" lon="4.35309">
        <ele>522</ele>
        <time>2015-08-22T15:54:10.000Z</time>
      </trkpt>
      <trkpt lat="45.5663" lon="4.35314">
        <ele>521.20001220703</ele>
        <time>2015-08-22T15:54:13.000Z</time>
      </trkpt>
      <trkpt lat="45.5661" lon="4.35323">
        <ele>521.59997558594</ele>
        <time>2015-08-22T15:54:19.000Z</time>
      </trkpt>
      <trkpt lat="45.56592" lon="4.35333">
        <ele>520.40002441406</ele>
        <time>2015-08-22T15:54:26.000Z</time>
      </trkpt>
      <trkpt lat="45.5659" lon="4.35335">
        <ele>519.79998779297</ele>
        <time>2015-08-22T15:54:28.000Z</time>
      </trkpt>
      <trkpt lat="45.56572" lon="4.35342">
        <ele>516.20001220703</ele>
        <time>2015-08-22T15:54:39.000Z</time>
      </trkpt>
      <trkpt lat="45.56553" lon="4.35355">
        <ele>511.60000610352</ele>
        <time>2015-08-22T15:54:44.000Z</time>
      </trkpt>
      <trkpt lat="45.56535" lon="4.35365">
        <ele>509.79998779297</ele>
        <time>2015-08-22T15:54:49.000Z</time>
      </trkpt>
      <trkpt lat="45.56518" lon="4.35374">
        <ele>509.60000610352</ele>
        <time>2015-08-22T15:54:57.000Z</time>
      </trkpt>
      <trkpt lat="45.5651" lon="4.35392">
        <ele>509.60000610352</ele>
        <time>2015-08-22T15:55:03.000Z</time>
      </trkpt>
      <trkpt lat="45.56503" lon="4.35398">
        <ele>509.39999389648</ele>
        <time>2015-08-22T15:55:08.000Z</time>
      </trkpt>
      <trkpt lat="45.56487" lon="4.35411">
        <ele>505.20001220703</ele>
        <time>2015-08-22T15:55:19.000Z</time>
      </trkpt>
      <trkpt lat="45.56473" lon="4.3543">
        <ele>500.39999389648</ele>
        <time>2015-08-22T15:55:28.000Z</time>
      </trkpt>
      <trkpt lat="45.56466" lon="4.35454">
        <ele>497</ele>
        <time>2015-08-22T15:55:36.000Z</time>
      </trkpt>
      <trkpt lat="45.56461" lon="4.35482">
        <ele>496.79998779297</ele>
        <time>2015-08-22T15:55:42.000Z</time>
      </trkpt>
      <trkpt lat="45.56457" lon="4.35504">
        <ele>496.39999389648</ele>
        <time>2015-08-22T15:55:47.000Z</time>
      </trkpt>
      <trkpt lat="45.5644" lon="4.35525">
        <ele>494.60000610352</ele>
        <time>2015-08-22T15:55:53.000Z</time>
      </trkpt>
      <trkpt lat="45.56424" lon="4.35539">
        <ele>492.60000610352</ele>
        <time>2015-08-22T15:56:01.000Z</time>
      </trkpt>
      <trkpt lat="45.56416" lon="4.35562">
        <ele>491</ele>
        <time>2015-08-22T15:56:09.000Z</time>
      </trkpt>
      <trkpt lat="45.56414" lon="4.35566">
        <ele>490.79998779297</ele>
        <time>2015-08-22T15:56:11.000Z</time>
      </trkpt>
      <trkpt lat="45.56398" lon="4.3558">
        <ele>488.79998779297</ele>
        <time>2015-08-22T15:56:23.000Z</time>
      </trkpt>
      <trkpt lat="45.56379" lon="4.35583">
        <ele>488.79998779297</ele>
        <time>2015-08-22T15:56:32.000Z</time>
      </trkpt>
      <trkpt lat="45.5636" lon="4.3559">
        <ele>493.79998779297</ele>
        <time>2015-08-22T15:56:42.000Z</time>
      </trkpt>
      <trkpt lat="45.56342" lon="4.356">
        <ele>496</ele>
        <time>2015-08-22T15:56:52.000Z</time>
      </trkpt>
      <trkpt lat="45.56323" lon="4.35607">
        <ele>498.79998779297</ele>
        <time>2015-08-22T15:57:02.000Z</time>
      </trkpt>
      <trkpt lat="45.56315" lon="4.35607">
        <ele>500.39999389648</ele>
        <time>2015-08-22T15:57:07.000Z</time>
      </trkpt>
      <trkpt lat="45.56296" lon="4.35608">
        <ele>503.20001220703</ele>
        <time>2015-08-22T15:57:18.000Z</time>
      </trkpt>
      <trkpt lat="45.56284" lon="4.35607">
        <ele>504.60000610352</ele>
        <time>2015-08-22T15:57:26.000Z</time>
      </trkpt>
      <trkpt lat="45.56281" lon="4.35607">
        <ele>505</ele>
        <time>2015-08-22T15:57:29.000Z</time>
      </trkpt>
      <trkpt lat="45.56266" lon="4.3561">
        <ele>506.60000610352</ele>
        <time>2015-08-22T15:58:25.000Z</time>
      </trkpt>
      <trkpt lat="45.56248" lon="4.3562">
        <ele>508.60000610352</ele>
        <time>2015-08-22T15:58:36.000Z</time>
      </trkpt>
      <trkpt lat="45.5623" lon="4.35626">
        <ele>511</ele>
        <time>2015-08-22T15:58:47.000Z</time>
      </trkpt>
      <trkpt lat="45.56223" lon="4.35628">
        <ele>511.79998779297</ele>
        <time>2015-08-22T15:58:54.000Z</time>
      </trkpt>
      <trkpt lat="45.56209" lon="4.35632">
        <ele>513.79998779297</ele>
        <time>2015-08-22T15:59:03.000Z</time>
      </trkpt>
      <trkpt lat="45.56193" lon="4.35643">
        <ele>516.40002441406</ele>
        <time>2015-08-22T15:59:13.000Z</time>
      </trkpt>
      <trkpt lat="45.56187" lon="4.35647">
        <ele>517.20001220703</ele>
        <time>2015-08-22T15:59:19.000Z</time>
      </trkpt>
      <trkpt lat="45.56176" lon="4.35654">
        <ele>518.79998779297</ele>
        <time>2015-08-22T15:59:27.000Z</time>
      </trkpt>
      <trkpt lat="45.5616" lon="4.35666">
        <ele>518.59997558594</ele>
        <time>2015-08-22T15:59:38.000Z</time>
      </trkpt>
      <trkpt lat="45.56145" lon="4.35681">
        <ele>518</ele>
        <time>2015-08-22T15:59:54.000Z</time>
      </trkpt>
      <trkpt lat="45.56136" lon="4.35689">
        <ele>517.59997558594</ele>
        <time>2015-08-22T16:00:03.000Z</time>
      </trkpt>
      <trkpt lat="45.56131" lon="4.35696">
        <ele>517.40002441406</ele>
        <time>2015-08-22T16:00:08.000Z</time>
      </trkpt>
      <trkpt lat="45.56127" lon="4.35702">
        <ele>517.59997558594</ele>
        <time>2015-08-22T16:00:13.000Z</time>
      </trkpt>
      <trkpt lat="45.56123" lon="4.35703">
        <ele>518</ele>
        <time>2015-08-22T16:01:58.000Z</time>
      </trkpt>
      <trkpt lat="45.56112" lon="4.35718">
        <ele>519.40002441406</ele>
        <time>2015-08-22T16:02:33.000Z</time>
      </trkpt>
      <trkpt lat="45.56111" lon="4.3572">
        <ele>519.40002441406</ele>
        <time>2015-08-22T16:02:34.000Z</time>
      </trkpt>
      <trkpt lat="45.56099" lon="4.35734">
        <ele>520.79998779297</ele>
        <time>2015-08-22T16:02:47.000Z</time>
      </trkpt>
      <trkpt lat="45.56105" lon="4.35757">
        <ele>521</ele>
        <time>2015-08-22T16:03:13.000Z</time>
      </trkpt>
      <trkpt lat="45.56113" lon="4.3578">
        <ele>520.79998779297</ele>
        <time>2015-08-22T16:03:26.000Z</time>
      </trkpt>
      <trkpt lat="45.56124" lon="4.358">
        <ele>522.79998779297</ele>
        <time>2015-08-22T16:03:38.000Z</time>
      </trkpt>
      <trkpt lat="45.56136" lon="4.35819">
        <ele>525</ele>
        <time>2015-08-22T16:03:50.000Z</time>
      </trkpt>
      <trkpt lat="45.56151" lon="4.35836">
        <ele>527</ele>
        <time>2015-08-22T16:04:02.000Z</time>
      </trkpt>
      <trkpt lat="45.56166" lon="4.35852">
        <ele>529</ele>
        <time>2015-08-22T16:04:13.000Z</time>
      </trkpt>
      <trkpt lat="45.56179" lon="4.35864">
        <ele>530.40002441406</ele>
        <time>2015-08-22T16:04:23.000Z</time>
      </trkpt>
      <trkpt lat="45.56193" lon="4.3588">
        <ele>532</ele>
        <time>2015-08-22T16:04:36.000Z</time>
      </trkpt>
      <trkpt lat="45.56194" lon="4.35881">
        <ele>532.20001220703</ele>
        <time>2015-08-22T16:04:37.000Z</time>
      </trkpt>
      <trkpt lat="45.56207" lon="4.35895">
        <ele>533.40002441406</ele>
        <time>2015-08-22T16:04:47.000Z</time>
      </trkpt>
      <trkpt lat="45.5621" lon="4.35899">
        <ele>533.79998779297</ele>
        <time>2015-08-22T16:04:51.000Z</time>
      </trkpt>
      <trkpt lat="45.56218" lon="4.35906">
        <ele>534.40002441406</ele>
        <time>2015-08-22T16:05:00.000Z</time>
      </trkpt>
      <trkpt lat="45.56221" lon="4.3591">
        <ele>534.59997558594</ele>
        <time>2015-08-22T16:05:04.000Z</time>
      </trkpt>
      <trkpt lat="45.56235" lon="4.35928">
        <ele>535.79998779297</ele>
        <time>2015-08-22T16:05:19.000Z</time>
      </trkpt>
      <trkpt lat="45.56245" lon="4.35951">
        <ele>537.20001220703</ele>
        <time>2015-08-22T16:05:33.000Z</time>
      </trkpt>
      <trkpt lat="45.56245" lon="4.35954">
        <ele>537</ele>
        <time>2015-08-22T16:05:34.000Z</time>
      </trkpt>
      <trkpt lat="45.56247" lon="4.35981">
        <ele>535.59997558594</ele>
        <time>2015-08-22T16:05:46.000Z</time>
      </trkpt>
      <trkpt lat="45.56242" lon="4.36005">
        <ele>537.79998779297</ele>
        <time>2015-08-22T16:05:53.000Z</time>
      </trkpt>
      <trkpt lat="45.5624" lon="4.36007">
        <ele>538.20001220703</ele>
        <time>2015-08-22T16:05:54.000Z</time>
      </trkpt>
      <trkpt lat="45.56222" lon="4.36019">
        <ele>541.79998779297</ele>
        <time>2015-08-22T16:06:03.000Z</time>
      </trkpt>
      <trkpt lat="45.56205" lon="4.3603">
        <ele>543.20001220703</ele>
        <time>2015-08-22T16:06:11.000Z</time>
      </trkpt>
      <trkpt lat="45.56186" lon="4.36042">
        <ele>543.40002441406</ele>
        <time>2015-08-22T16:06:20.000Z</time>
      </trkpt>
      <trkpt lat="45.56168" lon="4.36051">
        <ele>543.40002441406</ele>
        <time>2015-08-22T16:06:28.000Z</time>
      </trkpt>
      <trkpt lat="45.5615" lon="4.36058">
        <ele>544.40002441406</ele>
        <time>2015-08-22T16:06:36.000Z</time>
      </trkpt>
      <trkpt lat="45.56132" lon="4.36069">
        <ele>546.40002441406</ele>
        <time>2015-08-22T16:06:45.000Z</time>
      </trkpt>
      <trkpt lat="45.56118" lon="4.36086">
        <ele>547.40002441406</ele>
        <time>2015-08-22T16:06:54.000Z</time>
      </trkpt>
      <trkpt lat="45.56107" lon="4.36106">
        <ele>548.79998779297</ele>
        <time>2015-08-22T16:07:03.000Z</time>
      </trkpt>
      <trkpt lat="45.56096" lon="4.3613">
        <ele>549.79998779297</ele>
        <time>2015-08-22T16:07:14.000Z</time>
      </trkpt>
      <trkpt lat="45.56084" lon="4.36149">
        <ele>550.59997558594</ele>
        <time>2015-08-22T16:07:25.000Z</time>
      </trkpt>
      <trkpt lat="45.56073" lon="4.36161">
        <ele>552.20001220703</ele>
        <time>2015-08-22T16:07:33.000Z</time>
      </trkpt>
      <trkpt lat="45.56057" lon="4.36176">
        <ele>554.40002441406</ele>
        <time>2015-08-22T16:07:44.000Z</time>
      </trkpt>
      <trkpt lat="45.56055" lon="4.36178">
        <ele>554.59997558594</ele>
        <time>2015-08-22T16:07:45.000Z</time>
      </trkpt>
      <trkpt lat="45.56038" lon="4.3619">
        <ele>556</ele>
        <time>2015-08-22T16:07:56.000Z</time>
      </trkpt>
      <trkpt lat="45.56022" lon="4.362">
        <ele>557.79998779297</ele>
        <time>2015-08-22T16:08:06.000Z</time>
      </trkpt>
      <trkpt lat="45.56004" lon="4.36211">
        <ele>559.40002441406</ele>
        <time>2015-08-22T16:08:15.000Z</time>
      </trkpt>
      <trkpt lat="45.55987" lon="4.36218">
        <ele>561</ele>
        <time>2015-08-22T16:08:26.000Z</time>
      </trkpt>
      <trkpt lat="45.55968" lon="4.36223">
        <ele>563</ele>
        <time>2015-08-22T16:08:36.000Z</time>
      </trkpt>
      <trkpt lat="45.55949" lon="4.36227">
        <ele>563.79998779297</ele>
        <time>2015-08-22T16:08:49.000Z</time>
      </trkpt>
      <trkpt lat="45.55936" lon="4.36228">
        <ele>564.40002441406</ele>
        <time>2015-08-22T16:08:59.000Z</time>
      </trkpt>
      <trkpt lat="45.55933" lon="4.36229">
        <ele>564.59997558594</ele>
        <time>2015-08-22T16:09:03.000Z</time>
      </trkpt>
      <trkpt lat="45.55927" lon="4.36233">
        <ele>565</ele>
        <time>2015-08-22T16:09:08.000Z</time>
      </trkpt>
      <trkpt lat="45.55915" lon="4.36251">
        <ele>567.79998779297</ele>
        <time>2015-08-22T16:09:20.000Z</time>
      </trkpt>
      <trkpt lat="45.55906" lon="4.36274">
        <ele>571.59997558594</ele>
        <time>2015-08-22T16:09:31.000Z</time>
      </trkpt>
      <trkpt lat="45.55897" lon="4.36298">
        <ele>573.20001220703</ele>
        <time>2015-08-22T16:09:41.000Z</time>
      </trkpt>
      <trkpt lat="45.55883" lon="4.36316">
        <ele>575.20001220703</ele>
        <time>2015-08-22T16:09:48.000Z</time>
      </trkpt>
      <trkpt lat="45.55872" lon="4.36336">
        <ele>576</ele>
        <time>2015-08-22T16:09:55.000Z</time>
      </trkpt>
      <trkpt lat="45.55866" lon="4.36363">
        <ele>577.79998779297</ele>
        <time>2015-08-22T16:10:04.000Z</time>
      </trkpt>
      <trkpt lat="45.55862" lon="4.3639">
        <ele>578.40002441406</ele>
        <time>2015-08-22T16:10:13.000Z</time>
      </trkpt>
      <trkpt lat="45.55857" lon="4.36415">
        <ele>579</ele>
        <time>2015-08-22T16:10:22.000Z</time>
      </trkpt>
      <trkpt lat="45.55849" lon="4.36438">
        <ele>580.79998779297</ele>
        <time>2015-08-22T16:10:31.000Z</time>
      </trkpt>
      <trkpt lat="45.55835" lon="4.36456">
        <ele>583</ele>
        <time>2015-08-22T16:10:40.000Z</time>
      </trkpt>
      <trkpt lat="45.55817" lon="4.36468">
        <ele>584.79998779297</ele>
        <time>2015-08-22T16:10:49.000Z</time>
      </trkpt>
      <trkpt lat="45.558" lon="4.36479">
        <ele>585.79998779297</ele>
        <time>2015-08-22T16:10:58.000Z</time>
      </trkpt>
      <trkpt lat="45.55782" lon="4.3649">
        <ele>586.79998779297</ele>
        <time>2015-08-22T16:11:07.000Z</time>
      </trkpt>
      <trkpt lat="45.55766" lon="4.36505">
        <ele>587.79998779297</ele>
        <time>2015-08-22T16:11:16.000Z</time>
      </trkpt>
      <trkpt lat="45.55747" lon="4.36513">
        <ele>589.20001220703</ele>
        <time>2015-08-22T16:11:24.000Z</time>
      </trkpt>
      <trkpt lat="45.55729" lon="4.36521">
        <ele>590.20001220703</ele>
        <time>2015-08-22T16:11:31.000Z</time>
      </trkpt>
      <trkpt lat="45.55713" lon="4.36531">
        <ele>591.59997558594</ele>
        <time>2015-08-22T16:11:38.000Z</time>
      </trkpt>
      <trkpt lat="45.55696" lon="4.36546">
        <ele>592.40002441406</ele>
        <time>2015-08-22T16:11:45.000Z</time>
      </trkpt>
      <trkpt lat="45.5568" lon="4.3656">
        <ele>593.40002441406</ele>
        <time>2015-08-22T16:11:54.000Z</time>
      </trkpt>
      <trkpt lat="45.55677" lon="4.36564">
        <ele>593.59997558594</ele>
        <time>2015-08-22T16:11:56.000Z</time>
      </trkpt>
      <trkpt lat="45.55662" lon="4.36581">
        <ele>594.40002441406</ele>
        <time>2015-08-22T16:12:04.000Z</time>
      </trkpt>
      <trkpt lat="45.55647" lon="4.36599">
        <ele>595.20001220703</ele>
        <time>2015-08-22T16:12:14.000Z</time>
      </trkpt>
      <trkpt lat="45.55636" lon="4.36619">
        <ele>595.40002441406</ele>
        <time>2015-08-22T16:12:22.000Z</time>
      </trkpt>
      <trkpt lat="45.55625" lon="4.3664">
        <ele>595.59997558594</ele>
        <time>2015-08-22T16:12:30.000Z</time>
      </trkpt>
      <trkpt lat="45.55615" lon="4.36662">
        <ele>595.40002441406</ele>
        <time>2015-08-22T16:12:37.000Z</time>
      </trkpt>
      <trkpt lat="45.55605" lon="4.36683">
        <ele>596.20001220703</ele>
        <time>2015-08-22T16:12:48.000Z</time>
      </trkpt>
      <trkpt lat="45.55592" lon="4.36703">
        <ele>597.79998779297</ele>
        <time>2015-08-22T16:12:58.000Z</time>
      </trkpt>
      <trkpt lat="45.5558" lon="4.36724">
        <ele>598</ele>
        <time>2015-08-22T16:13:09.000Z</time>
      </trkpt>
      <trkpt lat="45.55566" lon="4.3674">
        <ele>600.20001220703</ele>
        <time>2015-08-22T16:13:19.000Z</time>
      </trkpt>
      <trkpt lat="45.55564" lon="4.36742">
        <ele>600.40002441406</ele>
        <time>2015-08-22T16:13:20.000Z</time>
      </trkpt>
      <trkpt lat="45.55551" lon="4.3676">
        <ele>602.40002441406</ele>
        <time>2015-08-22T16:13:32.000Z</time>
      </trkpt>
      <trkpt lat="45.55537" lon="4.3678">
        <ele>603</ele>
        <time>2015-08-22T16:13:43.000Z</time>
      </trkpt>
      <trkpt lat="45.55535" lon="4.36786">
        <ele>603.20001220703</ele>
        <time>2015-08-22T16:13:46.000Z</time>
      </trkpt>
      <trkpt lat="45.55522" lon="4.36803">
        <ele>603.40002441406</ele>
        <time>2015-08-22T16:13:58.000Z</time>
      </trkpt>
      <trkpt lat="45.55517" lon="4.36811">
        <ele>603.40002441406</ele>
        <time>2015-08-22T16:14:03.000Z</time>
      </trkpt>
      <trkpt lat="45.55516" lon="4.36813">
        <ele>603.40002441406</ele>
        <time>2015-08-22T16:14:04.000Z</time>
      </trkpt>
      <trkpt lat="45.5551" lon="4.36821">
        <ele>603.40002441406</ele>
        <time>2015-08-22T16:14:09.000Z</time>
      </trkpt>
      <trkpt lat="45.55496" lon="4.36839">
        <ele>607.40002441406</ele>
        <time>2015-08-22T16:14:20.000Z</time>
      </trkpt>
      <trkpt lat="45.5548" lon="4.36858">
        <ele>612</ele>
        <time>2015-08-22T16:14:29.000Z</time>
      </trkpt>
      <trkpt lat="45.55464" lon="4.36879">
        <ele>613.79998779297</ele>
        <time>2015-08-22T16:14:35.000Z</time>
      </trkpt>
      <trkpt lat="45.5545" lon="4.36902">
        <ele>611.20001220703</ele>
        <time>2015-08-22T16:14:40.000Z</time>
      </trkpt>
      <trkpt lat="45.55435" lon="4.36925">
        <ele>610.40002441406</ele>
        <time>2015-08-22T16:14:45.000Z</time>
      </trkpt>
      <trkpt lat="45.5542" lon="4.36947">
        <ele>614</ele>
        <time>2015-08-22T16:14:50.000Z</time>
      </trkpt>
      <trkpt lat="45.55417" lon="4.36951">
        <ele>614.20001220703</ele>
        <time>2015-08-22T16:14:51.000Z</time>
      </trkpt>
      <trkpt lat="45.55404" lon="4.36972">
        <ele>613.79998779297</ele>
        <time>2015-08-22T16:14:56.000Z</time>
      </trkpt>
      <trkpt lat="45.5539" lon="4.36992">
        <ele>616.79998779297</ele>
        <time>2015-08-22T16:15:03.000Z</time>
      </trkpt>
      <trkpt lat="45.55375" lon="4.37012">
        <ele>618</ele>
        <time>2015-08-22T16:15:12.000Z</time>
      </trkpt>
      <trkpt lat="45.55362" lon="4.3703">
        <ele>619.40002441406</ele>
        <time>2015-08-22T16:15:21.000Z</time>
      </trkpt>
      <trkpt lat="45.5535" lon="4.37052">
        <ele>618.79998779297</ele>
        <time>2015-08-22T16:15:30.000Z</time>
      </trkpt>
      <trkpt lat="45.55339" lon="4.37075">
        <ele>618.59997558594</ele>
        <time>2015-08-22T16:15:38.000Z</time>
      </trkpt>
      <trkpt lat="45.55327" lon="4.37099">
        <ele>620.40002441406</ele>
        <time>2015-08-22T16:15:45.000Z</time>
      </trkpt>
      <trkpt lat="45.55315" lon="4.37123">
        <ele>620.79998779297</ele>
        <time>2015-08-22T16:15:50.000Z</time>
      </trkpt>
      <trkpt lat="45.55303" lon="4.37149">
        <ele>621</ele>
        <time>2015-08-22T16:15:55.000Z</time>
      </trkpt>
      <trkpt lat="45.55292" lon="4.37174">
        <ele>619.40002441406</ele>
        <time>2015-08-22T16:16:00.000Z</time>
      </trkpt>
      <trkpt lat="45.55282" lon="4.372">
        <ele>620</ele>
        <time>2015-08-22T16:16:05.000Z</time>
      </trkpt>
      <trkpt lat="45.55272" lon="4.37223">
        <ele>619.79998779297</ele>
        <time>2015-08-22T16:16:11.000Z</time>
      </trkpt>
      <trkpt lat="45.5526" lon="4.37244">
        <ele>620.40002441406</ele>
        <time>2015-08-22T16:16:17.000Z</time>
      </trkpt>
      <trkpt lat="45.55247" lon="4.37264">
        <ele>622.40002441406</ele>
        <time>2015-08-22T16:16:23.000Z</time>
      </trkpt>
      <trkpt lat="45.55233" lon="4.37284">
        <ele>624.40002441406</ele>
        <time>2015-08-22T16:16:29.000Z</time>
      </trkpt>
      <trkpt lat="45.5522" lon="4.37304">
        <ele>625.20001220703</ele>
        <time>2015-08-22T16:16:35.000Z</time>
      </trkpt>
      <trkpt lat="45.55206" lon="4.37323">
        <ele>625.59997558594</ele>
        <time>2015-08-22T16:16:41.000Z</time>
      </trkpt>
      <trkpt lat="45.55193" lon="4.3734">
        <ele>626</ele>
        <time>2015-08-22T16:16:47.000Z</time>
      </trkpt>
      <trkpt lat="45.55177" lon="4.3736">
        <ele>628.40002441406</ele>
        <time>2015-08-22T16:16:54.000Z</time>
      </trkpt>
      <trkpt lat="45.55162" lon="4.37376">
        <ele>628.79998779297</ele>
        <time>2015-08-22T16:17:00.000Z</time>
      </trkpt>
      <trkpt lat="45.55145" lon="4.37395">
        <ele>628.79998779297</ele>
        <time>2015-08-22T16:17:06.000Z</time>
      </trkpt>
      <trkpt lat="45.55125" lon="4.37409">
        <ele>629</ele>
        <time>2015-08-22T16:17:12.000Z</time>
      </trkpt>
      <trkpt lat="45.55107" lon="4.37421">
        <ele>628.59997558594</ele>
        <time>2015-08-22T16:17:17.000Z</time>
      </trkpt>
      <trkpt lat="45.55087" lon="4.37432">
        <ele>630</ele>
        <time>2015-08-22T16:17:22.000Z</time>
      </trkpt>
      <trkpt lat="45.55067" lon="4.37446">
        <ele>631.20001220703</ele>
        <time>2015-08-22T16:17:27.000Z</time>
      </trkpt>
      <trkpt lat="45.5505" lon="4.37461">
        <ele>631.59997558594</ele>
        <time>2015-08-22T16:17:32.000Z</time>
      </trkpt>
      <trkpt lat="45.55035" lon="4.37478">
        <ele>631.20001220703</ele>
        <time>2015-08-22T16:17:38.000Z</time>
      </trkpt>
      <trkpt lat="45.5502" lon="4.37496">
        <ele>631</ele>
        <time>2015-08-22T16:17:45.000Z</time>
      </trkpt>
      <trkpt lat="45.55006" lon="4.37515">
        <ele>632</ele>
        <time>2015-08-22T16:17:52.000Z</time>
      </trkpt>
      <trkpt lat="45.54992" lon="4.37531">
        <ele>633.59997558594</ele>
        <time>2015-08-22T16:17:58.000Z</time>
      </trkpt>
      <trkpt lat="45.5498" lon="4.37551">
        <ele>635.40002441406</ele>
        <time>2015-08-22T16:18:04.000Z</time>
      </trkpt>
      <trkpt lat="45.54969" lon="4.37576">
        <ele>636.59997558594</ele>
        <time>2015-08-22T16:18:11.000Z</time>
      </trkpt>
      <trkpt lat="45.54961" lon="4.37603">
        <ele>636.59997558594</ele>
        <time>2015-08-22T16:18:18.000Z</time>
      </trkpt>
      <trkpt lat="45.5496" lon="4.37632">
        <ele>637.40002441406</ele>
        <time>2015-08-22T16:18:25.000Z</time>
      </trkpt>
      <trkpt lat="45.5496" lon="4.37658">
        <ele>639</ele>
        <time>2015-08-22T16:18:31.000Z</time>
      </trkpt>
      <trkpt lat="45.54956" lon="4.37687">
        <ele>641</ele>
        <time>2015-08-22T16:18:38.000Z</time>
      </trkpt>
      <trkpt lat="45.54951" lon="4.37712">
        <ele>642</ele>
        <time>2015-08-22T16:18:44.000Z</time>
      </trkpt>
      <trkpt lat="45.54944" lon="4.37736">
        <ele>644.59997558594</ele>
        <time>2015-08-22T16:18:51.000Z</time>
      </trkpt>
      <trkpt lat="45.54938" lon="4.37762">
        <ele>646</ele>
        <time>2015-08-22T16:19:00.000Z</time>
      </trkpt>
      <trkpt lat="45.54937" lon="4.37789">
        <ele>646</ele>
        <time>2015-08-22T16:19:09.000Z</time>
      </trkpt>
      <trkpt lat="45.5494" lon="4.37817">
        <ele>646.79998779297</ele>
        <time>2015-08-22T16:19:18.000Z</time>
      </trkpt>
      <trkpt lat="45.54945" lon="4.37843">
        <ele>647.79998779297</ele>
        <time>2015-08-22T16:19:25.000Z</time>
      </trkpt>
      <trkpt lat="45.54942" lon="4.3787">
        <ele>647.79998779297</ele>
        <time>2015-08-22T16:19:32.000Z</time>
      </trkpt>
      <trkpt lat="45.54934" lon="4.37894">
        <ele>647</ele>
        <time>2015-08-22T16:19:40.000Z</time>
      </trkpt>
      <trkpt lat="45.54925" lon="4.37917">
        <ele>647.20001220703</ele>
        <time>2015-08-22T16:19:49.000Z</time>
      </trkpt>
      <trkpt lat="45.5492" lon="4.37929">
        <ele>648.40002441406</ele>
        <time>2015-08-22T16:19:54.000Z</time>
      </trkpt>
      <trkpt lat="45.54911" lon="4.37953">
        <ele>650</ele>
        <time>2015-08-22T16:20:03.000Z</time>
      </trkpt>
      <trkpt lat="45.54902" lon="4.37979">
        <ele>649.40002441406</ele>
        <time>2015-08-22T16:20:12.000Z</time>
      </trkpt>
      <trkpt lat="45.54895" lon="4.38006">
        <ele>650.20001220703</ele>
        <time>2015-08-22T16:20:21.000Z</time>
      </trkpt>
      <trkpt lat="45.54888" lon="4.38031">
        <ele>650.79998779297</ele>
        <time>2015-08-22T16:20:29.000Z</time>
      </trkpt>
      <trkpt lat="45.54878" lon="4.38054">
        <ele>650.59997558594</ele>
        <time>2015-08-22T16:20:38.000Z</time>
      </trkpt>
      <trkpt lat="45.54867" lon="4.38076">
        <ele>650</ele>
        <time>2015-08-22T16:20:47.000Z</time>
      </trkpt>
      <trkpt lat="45.54855" lon="4.38098">
        <ele>651</ele>
        <time>2015-08-22T16:20:56.000Z</time>
      </trkpt>
      <trkpt lat="45.54844" lon="4.38118">
        <ele>654</ele>
        <time>2015-08-22T16:21:04.000Z</time>
      </trkpt>
      <trkpt lat="45.54833" lon="4.38142">
        <ele>655.20001220703</ele>
        <time>2015-08-22T16:21:13.000Z</time>
      </trkpt>
      <trkpt lat="45.54823" lon="4.38167">
        <ele>657.59997558594</ele>
        <time>2015-08-22T16:21:22.000Z</time>
      </trkpt>
      <trkpt lat="45.54815" lon="4.3819">
        <ele>659.79998779297</ele>
        <time>2015-08-22T16:21:30.000Z</time>
      </trkpt>
      <trkpt lat="45.54811" lon="4.38197">
        <ele>660.59997558594</ele>
        <time>2015-08-22T16:21:34.000Z</time>
      </trkpt>
      <trkpt lat="45.54814" lon="4.38194">
        <ele>660.20001220703</ele>
        <time>2015-08-22T16:24:40.000Z</time>
      </trkpt>
      <trkpt lat="45.54812" lon="4.38203">
        <ele>660.59997558594</ele>
        <time>2015-08-22T16:25:35.000Z</time>
      </trkpt>
      <trkpt lat="45.54804" lon="4.38227">
        <ele>661.79998779297</ele>
        <time>2015-08-22T16:25:43.000Z</time>
      </trkpt>
      <trkpt lat="45.54795" lon="4.38252">
        <ele>662</ele>
        <time>2015-08-22T16:25:50.000Z</time>
      </trkpt>
      <trkpt lat="45.54784" lon="4.38274">
        <ele>662.20001220703</ele>
        <time>2015-08-22T16:25:56.000Z</time>
      </trkpt>
      <trkpt lat="45.54774" lon="4.38296">
        <ele>663.40002441406</ele>
        <time>2015-08-22T16:26:02.000Z</time>
      </trkpt>
      <trkpt lat="45.54764" lon="4.38318">
        <ele>664.20001220703</ele>
        <time>2015-08-22T16:26:08.000Z</time>
      </trkpt>
      <trkpt lat="45.54758" lon="4.38343">
        <ele>665</ele>
        <time>2015-08-22T16:26:14.000Z</time>
      </trkpt>
      <trkpt lat="45.54754" lon="4.38369">
        <ele>665.59997558594</ele>
        <time>2015-08-22T16:26:20.000Z</time>
      </trkpt>
      <trkpt lat="45.5475" lon="4.38395">
        <ele>665.79998779297</ele>
        <time>2015-08-22T16:26:26.000Z</time>
      </trkpt>
      <trkpt lat="45.54743" lon="4.38419">
        <ele>666.79998779297</ele>
        <time>2015-08-22T16:26:32.000Z</time>
      </trkpt>
      <trkpt lat="45.54733" lon="4.38444">
        <ele>668</ele>
        <time>2015-08-22T16:26:39.000Z</time>
      </trkpt>
      <trkpt lat="45.54721" lon="4.38468">
        <ele>669.20001220703</ele>
        <time>2015-08-22T16:26:46.000Z</time>
      </trkpt>
      <trkpt lat="45.54708" lon="4.38492">
        <ele>670</ele>
        <time>2015-08-22T16:26:53.000Z</time>
      </trkpt>
      <trkpt lat="45.54696" lon="4.38512">
        <ele>670.40002441406</ele>
        <time>2015-08-22T16:27:00.000Z</time>
      </trkpt>
      <trkpt lat="45.54684" lon="4.38536">
        <ele>671</ele>
        <time>2015-08-22T16:27:08.000Z</time>
      </trkpt>
      <trkpt lat="45.54673" lon="4.38556">
        <ele>671.20001220703</ele>
        <time>2015-08-22T16:27:15.000Z</time>
      </trkpt>
      <trkpt lat="45.54661" lon="4.38578">
        <ele>672.59997558594</ele>
        <time>2015-08-22T16:27:23.000Z</time>
      </trkpt>
      <trkpt lat="45.54649" lon="4.38599">
        <ele>674.40002441406</ele>
        <time>2015-08-22T16:27:31.000Z</time>
      </trkpt>
      <trkpt lat="45.54638" lon="4.38621">
        <ele>675.79998779297</ele>
        <time>2015-08-22T16:27:40.000Z</time>
      </trkpt>
      <trkpt lat="45.54626" lon="4.38643">
        <ele>676.59997558594</ele>
        <time>2015-08-22T16:27:49.000Z</time>
      </trkpt>
      <trkpt lat="45.54613" lon="4.38663">
        <ele>677</ele>
        <time>2015-08-22T16:27:58.000Z</time>
      </trkpt>
      <trkpt lat="45.54601" lon="4.38686">
        <ele>678.59997558594</ele>
        <time>2015-08-22T16:28:07.000Z</time>
      </trkpt>
      <trkpt lat="45.54587" lon="4.38705">
        <ele>680.20001220703</ele>
        <time>2015-08-22T16:28:16.000Z</time>
      </trkpt>
      <trkpt lat="45.54574" lon="4.38724">
        <ele>680.79998779297</ele>
        <time>2015-08-22T16:28:25.000Z</time>
      </trkpt>
      <trkpt lat="45.54561" lon="4.38743">
        <ele>682.59997558594</ele>
        <time>2015-08-22T16:28:35.000Z</time>
      </trkpt>
      <trkpt lat="45.54546" lon="4.38762">
        <ele>684.40002441406</ele>
        <time>2015-08-22T16:28:46.000Z</time>
      </trkpt>
      <trkpt lat="45.54531" lon="4.38779">
        <ele>686.79998779297</ele>
        <time>2015-08-22T16:28:57.000Z</time>
      </trkpt>
      <trkpt lat="45.54515" lon="4.38796">
        <ele>689.20001220703</ele>
        <time>2015-08-22T16:29:05.000Z</time>
      </trkpt>
      <trkpt lat="45.54503" lon="4.38817">
        <ele>691.40002441406</ele>
        <time>2015-08-22T16:29:13.000Z</time>
      </trkpt>
      <trkpt lat="45.54492" lon="4.38839">
        <ele>692.20001220703</ele>
        <time>2015-08-22T16:29:21.000Z</time>
      </trkpt>
      <trkpt lat="45.54481" lon="4.38861">
        <ele>693.20001220703</ele>
        <time>2015-08-22T16:29:29.000Z</time>
      </trkpt>
      <trkpt lat="45.54471" lon="4.38886">
        <ele>692.59997558594</ele>
        <time>2015-08-22T16:29:37.000Z</time>
      </trkpt>
      <trkpt lat="45.54466" lon="4.38911">
        <ele>691.79998779297</ele>
        <time>2015-08-22T16:29:44.000Z</time>
      </trkpt>
      <trkpt lat="45.54458" lon="4.3894">
        <ele>690.59997558594</ele>
        <time>2015-08-22T16:29:50.000Z</time>
      </trkpt>
      <trkpt lat="45.54451" lon="4.38961">
        <ele>690.79998779297</ele>
        <time>2015-08-22T16:29:54.000Z</time>
      </trkpt>
      <trkpt lat="45.54443" lon="4.38986">
        <ele>690.20001220703</ele>
        <time>2015-08-22T16:29:59.000Z</time>
      </trkpt>
      <trkpt lat="45.54432" lon="4.39012">
        <ele>690</ele>
        <time>2015-08-22T16:30:05.000Z</time>
      </trkpt>
      <trkpt lat="45.54423" lon="4.39039">
        <ele>689.79998779297</ele>
        <time>2015-08-22T16:30:11.000Z</time>
      </trkpt>
      <trkpt lat="45.54412" lon="4.39064">
        <ele>689.40002441406</ele>
        <time>2015-08-22T16:30:16.000Z</time>
      </trkpt>
      <trkpt lat="45.54403" lon="4.39088">
        <ele>688.79998779297</ele>
        <time>2015-08-22T16:30:21.000Z</time>
      </trkpt>
      <trkpt lat="45.54397" lon="4.39116">
        <ele>687.79998779297</ele>
        <time>2015-08-22T16:30:27.000Z</time>
      </trkpt>
      <trkpt lat="45.54393" lon="4.39141">
        <ele>688.40002441406</ele>
        <time>2015-08-22T16:30:33.000Z</time>
      </trkpt>
      <trkpt lat="45.54387" lon="4.39166">
        <ele>689.79998779297</ele>
        <time>2015-08-22T16:30:40.000Z</time>
      </trkpt>
      <trkpt lat="45.54382" lon="4.39193">
        <ele>691</ele>
        <time>2015-08-22T16:30:47.000Z</time>
      </trkpt>
      <trkpt lat="45.54376" lon="4.39208">
        <ele>692.20001220703</ele>
        <time>2015-08-22T16:30:52.000Z</time>
      </trkpt>
      <trkpt lat="45.54372" lon="4.3922">
        <ele>693.40002441406</ele>
        <time>2015-08-22T16:30:56.000Z</time>
      </trkpt>
      <trkpt lat="45.54361" lon="4.39243">
        <ele>695.79998779297</ele>
        <time>2015-08-22T16:31:03.000Z</time>
      </trkpt>
      <trkpt lat="45.54353" lon="4.39268">
        <ele>697.79998779297</ele>
        <time>2015-08-22T16:31:10.000Z</time>
      </trkpt>
      <trkpt lat="45.54346" lon="4.39296">
        <ele>699.40002441406</ele>
        <time>2015-08-22T16:31:17.000Z</time>
      </trkpt>
      <trkpt lat="45.54341" lon="4.39322">
        <ele>701</ele>
        <time>2015-08-22T16:31:23.000Z</time>
      </trkpt>
      <trkpt lat="45.54334" lon="4.39348">
        <ele>701.79998779297</ele>
        <time>2015-08-22T16:31:30.000Z</time>
      </trkpt>
      <trkpt lat="45.54328" lon="4.39376">
        <ele>702.79998779297</ele>
        <time>2015-08-22T16:31:37.000Z</time>
      </trkpt>
      <trkpt lat="45.54324" lon="4.39405">
        <ele>703.79998779297</ele>
        <time>2015-08-22T16:31:44.000Z</time>
      </trkpt>
      <trkpt lat="45.54321" lon="4.39433">
        <ele>704.79998779297</ele>
        <time>2015-08-22T16:31:51.000Z</time>
      </trkpt>
      <trkpt lat="45.54319" lon="4.39461">
        <ele>705.79998779297</ele>
        <time>2015-08-22T16:31:58.000Z</time>
      </trkpt>
      <trkpt lat="45.54317" lon="4.39489">
        <ele>707.20001220703</ele>
        <time>2015-08-22T16:32:05.000Z</time>
      </trkpt>
      <trkpt lat="45.54315" lon="4.39518">
        <ele>708.59997558594</ele>
        <time>2015-08-22T16:32:12.000Z</time>
      </trkpt>
      <trkpt lat="45.54315" lon="4.39546">
        <ele>709.79998779297</ele>
        <time>2015-08-22T16:32:19.000Z</time>
      </trkpt>
      <trkpt lat="45.54317" lon="4.39575">
        <ele>710.59997558594</ele>
        <time>2015-08-22T16:32:27.000Z</time>
      </trkpt>
      <trkpt lat="45.54319" lon="4.39601">
        <ele>711.40002441406</ele>
        <time>2015-08-22T16:32:34.000Z</time>
      </trkpt>
      <trkpt lat="45.5432" lon="4.39629">
        <ele>712.59997558594</ele>
        <time>2015-08-22T16:32:42.000Z</time>
      </trkpt>
      <trkpt lat="45.5432" lon="4.39656">
        <ele>714.20001220703</ele>
        <time>2015-08-22T16:32:49.000Z</time>
      </trkpt>
      <trkpt lat="45.54319" lon="4.39684">
        <ele>715.79998779297</ele>
        <time>2015-08-22T16:32:57.000Z</time>
      </trkpt>
      <trkpt lat="45.54317" lon="4.39711">
        <ele>716.79998779297</ele>
        <time>2015-08-22T16:33:05.000Z</time>
      </trkpt>
      <trkpt lat="45.54315" lon="4.39737">
        <ele>717.79998779297</ele>
        <time>2015-08-22T16:33:12.000Z</time>
      </trkpt>
      <trkpt lat="45.54312" lon="4.39766">
        <ele>718.59997558594</ele>
        <time>2015-08-22T16:33:19.000Z</time>
      </trkpt>
      <trkpt lat="45.54306" lon="4.39794">
        <ele>719.40002441406</ele>
        <time>2015-08-22T16:33:25.000Z</time>
      </trkpt>
      <trkpt lat="45.54299" lon="4.39819">
        <ele>719.40002441406</ele>
        <time>2015-08-22T16:33:31.000Z</time>
      </trkpt>
      <trkpt lat="45.54293" lon="4.39844">
        <ele>719.20001220703</ele>
        <time>2015-08-22T16:33:38.000Z</time>
      </trkpt>
      <trkpt lat="45.54287" lon="4.39869">
        <ele>719.79998779297</ele>
        <time>2015-08-22T16:33:45.000Z</time>
      </trkpt>
      <trkpt lat="45.54279" lon="4.39892">
        <ele>720.40002441406</ele>
        <time>2015-08-22T16:33:52.000Z</time>
      </trkpt>
      <trkpt lat="45.5427" lon="4.39915">
        <ele>721</ele>
        <time>2015-08-22T16:33:59.000Z</time>
      </trkpt>
      <trkpt lat="45.54261" lon="4.39938">
        <ele>722</ele>
        <time>2015-08-22T16:34:06.000Z</time>
      </trkpt>
      <trkpt lat="45.54251" lon="4.39961">
        <ele>722.79998779297</ele>
        <time>2015-08-22T16:34:13.000Z</time>
      </trkpt>
      <trkpt lat="45.54242" lon="4.39983">
        <ele>723.40002441406</ele>
        <time>2015-08-22T16:34:20.000Z</time>
      </trkpt>
      <trkpt lat="45.54233" lon="4.40006">
        <ele>724.59997558594</ele>
        <time>2015-08-22T16:34:27.000Z</time>
      </trkpt>
      <trkpt lat="45.54224" lon="4.40032">
        <ele>726</ele>
        <time>2015-08-22T16:34:35.000Z</time>
      </trkpt>
      <trkpt lat="45.54221" lon="4.40059">
        <ele>726.59997558594</ele>
        <time>2015-08-22T16:34:43.000Z</time>
      </trkpt>
      <trkpt lat="45.54215" lon="4.40086">
        <ele>727.20001220703</ele>
        <time>2015-08-22T16:34:51.000Z</time>
      </trkpt>
      <trkpt lat="45.54209" lon="4.40096">
        <ele>727.40002441406</ele>
        <time>2015-08-22T16:34:55.000Z</time>
      </trkpt>
      <trkpt lat="45.54203" lon="4.40104">
        <ele>727.59997558594</ele>
        <time>2015-08-22T16:35:00.000Z</time>
      </trkpt>
      <trkpt lat="45.542" lon="4.40118">
        <ele>728.20001220703</ele>
        <time>2015-08-22T16:36:52.000Z</time>
      </trkpt>
      <trkpt lat="45.54192" lon="4.40141">
        <ele>727.40002441406</ele>
        <time>2015-08-22T16:36:59.000Z</time>
      </trkpt>
      <trkpt lat="45.54181" lon="4.40167">
        <ele>726.79998779297</ele>
        <time>2015-08-22T16:37:06.000Z</time>
      </trkpt>
      <trkpt lat="45.54171" lon="4.40189">
        <ele>728.20001220703</ele>
        <time>2015-08-22T16:37:12.000Z</time>
      </trkpt>
      <trkpt lat="45.54158" lon="4.40209">
        <ele>729</ele>
        <time>2015-08-22T16:37:19.000Z</time>
      </trkpt>
      <trkpt lat="45.54145" lon="4.40228">
        <ele>730.40002441406</ele>
        <time>2015-08-22T16:37:28.000Z</time>
      </trkpt>
      <trkpt lat="45.54128" lon="4.40243">
        <ele>732.40002441406</ele>
        <time>2015-08-22T16:37:38.000Z</time>
      </trkpt>
      <trkpt lat="45.54112" lon="4.40254">
        <ele>733.59997558594</ele>
        <time>2015-08-22T16:37:46.000Z</time>
      </trkpt>
      <trkpt lat="45.54094" lon="4.40266">
        <ele>736.79998779297</ele>
        <time>2015-08-22T16:37:55.000Z</time>
      </trkpt>
      <trkpt lat="45.54077" lon="4.40278">
        <ele>740.59997558594</ele>
        <time>2015-08-22T16:38:03.000Z</time>
      </trkpt>
      <trkpt lat="45.5406" lon="4.40293">
        <ele>742.79998779297</ele>
        <time>2015-08-22T16:38:12.000Z</time>
      </trkpt>
      <trkpt lat="45.54043" lon="4.40308">
        <ele>744</ele>
        <time>2015-08-22T16:38:21.000Z</time>
      </trkpt>
      <trkpt lat="45.54028" lon="4.40325">
        <ele>743.79998779297</ele>
        <time>2015-08-22T16:38:31.000Z</time>
      </trkpt>
      <trkpt lat="45.54014" lon="4.40344">
        <ele>745.20001220703</ele>
        <time>2015-08-22T16:38:41.000Z</time>
      </trkpt>
      <trkpt lat="45.54002" lon="4.40366">
        <ele>748.59997558594</ele>
        <time>2015-08-22T16:38:51.000Z</time>
      </trkpt>
      <trkpt lat="45.53991" lon="4.40387">
        <ele>749.40002441406</ele>
        <time>2015-08-22T16:39:02.000Z</time>
      </trkpt>
      <trkpt lat="45.53986" lon="4.40398">
        <ele>750.59997558594</ele>
        <time>2015-08-22T16:39:07.000Z</time>
      </trkpt>
      <trkpt lat="45.53972" lon="4.40416">
        <ele>753.59997558594</ele>
        <time>2015-08-22T16:39:17.000Z</time>
      </trkpt>
      <trkpt lat="45.53958" lon="4.40433">
        <ele>755.59997558594</ele>
        <time>2015-08-22T16:39:28.000Z</time>
      </trkpt>
      <trkpt lat="45.53952" lon="4.40442">
        <ele>756.79998779297</ele>
        <time>2015-08-22T16:39:33.000Z</time>
      </trkpt>
      <trkpt lat="45.53946" lon="4.40466">
        <ele>759.40002441406</ele>
        <time>2015-08-22T16:39:43.000Z</time>
      </trkpt>
      <trkpt lat="45.53945" lon="4.40468">
        <ele>759.59997558594</ele>
        <time>2015-08-22T16:39:44.000Z</time>
      </trkpt>
      <trkpt lat="45.5394" lon="4.40477">
        <ele>761</ele>
        <time>2015-08-22T16:39:50.000Z</time>
      </trkpt>
      <trkpt lat="45.53925" lon="4.40491">
        <ele>764.20001220703</ele>
        <time>2015-08-22T16:40:03.000Z</time>
      </trkpt>
      <trkpt lat="45.53908" lon="4.40504">
        <ele>768.79998779297</ele>
        <time>2015-08-22T16:40:16.000Z</time>
      </trkpt>
      <trkpt lat="45.53893" lon="4.4052">
        <ele>773.40002441406</ele>
        <time>2015-08-22T16:40:31.000Z</time>
      </trkpt>
      <trkpt lat="45.53879" lon="4.40538">
        <ele>776.79998779297</ele>
        <time>2015-08-22T16:40:44.000Z</time>
      </trkpt>
      <trkpt lat="45.53867" lon="4.40558">
        <ele>779.20001220703</ele>
        <time>2015-08-22T16:41:00.000Z</time>
      </trkpt>
      <trkpt lat="45.53855" lon="4.40579">
        <ele>781.59997558594</ele>
        <time>2015-08-22T16:41:17.000Z</time>
      </trkpt>
      <trkpt lat="45.53845" lon="4.40602">
        <ele>785</ele>
        <time>2015-08-22T16:41:34.000Z</time>
      </trkpt>
      <trkpt lat="45.53844" lon="4.40603">
        <ele>785.20001220703</ele>
        <time>2015-08-22T16:41:35.000Z</time>
      </trkpt>
      <trkpt lat="45.53831" lon="4.40624">
        <ele>788.59997558594</ele>
        <time>2015-08-22T16:41:49.000Z</time>
      </trkpt>
      <trkpt lat="45.53816" lon="4.40639">
        <ele>792</ele>
        <time>2015-08-22T16:42:02.000Z</time>
      </trkpt>
      <trkpt lat="45.53803" lon="4.40657">
        <ele>797.20001220703</ele>
        <time>2015-08-22T16:42:15.000Z</time>
      </trkpt>
      <trkpt lat="45.53788" lon="4.40673">
        <ele>800.79998779297</ele>
        <time>2015-08-22T16:42:29.000Z</time>
      </trkpt>
      <trkpt lat="45.53773" lon="4.4069">
        <ele>804</ele>
        <time>2015-08-22T16:42:42.000Z</time>
      </trkpt>
      <trkpt lat="45.53757" lon="4.40705">
        <ele>806.20001220703</ele>
        <time>2015-08-22T16:42:57.000Z</time>
      </trkpt>
      <trkpt lat="45.53756" lon="4.40705">
        <ele>806.20001220703</ele>
        <time>2015-08-22T16:42:58.000Z</time>
      </trkpt>
      <trkpt lat="45.53751" lon="4.40706">
        <ele>806.59997558594</ele>
        <time>2015-08-22T16:43:02.000Z</time>
      </trkpt>
      <trkpt lat="45.53732" lon="4.40712">
        <ele>808.20001220703</ele>
        <time>2015-08-22T16:43:16.000Z</time>
      </trkpt>
      <trkpt lat="45.53713" lon="4.40717">
        <ele>810.79998779297</ele>
        <time>2015-08-22T16:43:29.000Z</time>
      </trkpt>
      <trkpt lat="45.53703" lon="4.4072">
        <ele>811.59997558594</ele>
        <time>2015-08-22T16:43:36.000Z</time>
      </trkpt>
      <trkpt lat="45.53697" lon="4.40721">
        <ele>812.20001220703</ele>
        <time>2015-08-22T16:43:40.000Z</time>
      </trkpt>
      <trkpt lat="45.53694" lon="4.40722">
        <ele>812.40002441406</ele>
        <time>2015-08-22T16:43:43.000Z</time>
      </trkpt>
      <trkpt lat="45.53675" lon="4.40728">
        <ele>814</ele>
        <time>2015-08-22T16:43:56.000Z</time>
      </trkpt>
      <trkpt lat="45.53674" lon="4.40728">
        <ele>814</ele>
        <time>2015-08-22T16:43:57.000Z</time>
      </trkpt>
      <trkpt lat="45.53661" lon="4.40729">
        <ele>815</ele>
        <time>2015-08-22T16:44:05.000Z</time>
      </trkpt>
      <trkpt lat="45.53642" lon="4.40733">
        <ele>816.79998779297</ele>
        <time>2015-08-22T16:44:18.000Z</time>
      </trkpt>
      <trkpt lat="45.53627" lon="4.40742">
        <ele>819</ele>
        <time>2015-08-22T16:44:29.000Z</time>
      </trkpt>
      <trkpt lat="45.53622" lon="4.40744">
        <ele>819.79998779297</ele>
        <time>2015-08-22T16:44:33.000Z</time>
      </trkpt>
      <trkpt lat="45.53603" lon="4.40752">
        <ele>822.79998779297</ele>
        <time>2015-08-22T16:44:46.000Z</time>
      </trkpt>
      <trkpt lat="45.53585" lon="4.40761">
        <ele>824.79998779297</ele>
        <time>2015-08-22T16:45:00.000Z</time>
      </trkpt>
      <trkpt lat="45.5357" lon="4.40775">
        <ele>827</ele>
        <time>2015-08-22T16:45:13.000Z</time>
      </trkpt>
      <trkpt lat="45.53556" lon="4.40794">
        <ele>830.40002441406</ele>
        <time>2015-08-22T16:45:26.000Z</time>
      </trkpt>
      <trkpt lat="45.53538" lon="4.40804">
        <ele>833.59997558594</ele>
        <time>2015-08-22T16:45:39.000Z</time>
      </trkpt>
      <trkpt lat="45.53523" lon="4.40813">
        <ele>836.59997558594</ele>
        <time>2015-08-22T16:45:50.000Z</time>
      </trkpt>
      <trkpt lat="45.53512" lon="4.40819">
        <ele>838.59997558594</ele>
        <time>2015-08-22T16:45:57.000Z</time>
      </trkpt>
      <trkpt lat="45.53509" lon="4.40823">
        <ele>839.40002441406</ele>
        <time>2015-08-22T16:46:00.000Z</time>
      </trkpt>
      <trkpt lat="45.53499" lon="4.40829">
        <ele>840</ele>
        <time>2015-08-22T16:46:07.000Z</time>
      </trkpt>
      <trkpt lat="45.53481" lon="4.40836">
        <ele>840.79998779297</ele>
        <time>2015-08-22T16:46:18.000Z</time>
      </trkpt>
      <trkpt lat="45.53477" lon="4.40839">
        <ele>841</ele>
        <time>2015-08-22T16:46:21.000Z</time>
      </trkpt>
      <trkpt lat="45.5346" lon="4.40851">
        <ele>842.79998779297</ele>
        <time>2015-08-22T16:46:31.000Z</time>
      </trkpt>
      <trkpt lat="45.53444" lon="4.40865">
        <ele>844.59997558594</ele>
        <time>2015-08-22T16:46:40.000Z</time>
      </trkpt>
      <trkpt lat="45.5343" lon="4.40881">
        <ele>846</ele>
        <time>2015-08-22T16:46:50.000Z</time>
      </trkpt>
      <trkpt lat="45.53414" lon="4.40898">
        <ele>848</ele>
        <time>2015-08-22T16:46:59.000Z</time>
      </trkpt>
      <trkpt lat="45.53397" lon="4.40913">
        <ele>851.79998779297</ele>
        <time>2015-08-22T16:47:07.000Z</time>
      </trkpt>
      <trkpt lat="45.53378" lon="4.40926">
        <ele>855.20001220703</ele>
        <time>2015-08-22T16:47:15.000Z</time>
      </trkpt>
      <trkpt lat="45.5336" lon="4.40938">
        <ele>857.40002441406</ele>
        <time>2015-08-22T16:47:23.000Z</time>
      </trkpt>
      <trkpt lat="45.53341" lon="4.40947">
        <ele>858.40002441406</ele>
        <time>2015-08-22T16:47:31.000Z</time>
      </trkpt>
      <trkpt lat="45.53324" lon="4.40956">
        <ele>859</ele>
        <time>2015-08-22T16:47:39.000Z</time>
      </trkpt>
      <trkpt lat="45.53305" lon="4.40964">
        <ele>859.59997558594</ele>
        <time>2015-08-22T16:47:46.000Z</time>
      </trkpt>
      <trkpt lat="45.53286" lon="4.40972">
        <ele>860.20001220703</ele>
        <time>2015-08-22T16:47:52.000Z</time>
      </trkpt>
      <trkpt lat="45.53266" lon="4.4098">
        <ele>860.40002441406</ele>
        <time>2015-08-22T16:47:58.000Z</time>
      </trkpt>
      <trkpt lat="45.53247" lon="4.40991">
        <ele>860.20001220703</ele>
        <time>2015-08-22T16:48:04.000Z</time>
      </trkpt>
      <trkpt lat="45.53229" lon="4.41004">
        <ele>859.20001220703</ele>
        <time>2015-08-22T16:48:09.000Z</time>
      </trkpt>
      <trkpt lat="45.53213" lon="4.41018">
        <ele>858.59997558594</ele>
        <time>2015-08-22T16:48:13.000Z</time>
      </trkpt>
      <trkpt lat="45.53191" lon="4.41034">
        <ele>857.20001220703</ele>
        <time>2015-08-22T16:48:17.000Z</time>
      </trkpt>
      <trkpt lat="45.53179" lon="4.41044">
        <ele>856</ele>
        <time>2015-08-22T16:48:19.000Z</time>
      </trkpt>
      <trkpt lat="45.53161" lon="4.41066">
        <ele>853.40002441406</ele>
        <time>2015-08-22T16:48:22.000Z</time>
      </trkpt>
      <trkpt lat="45.5315" lon="4.41082">
        <ele>852</ele>
        <time>2015-08-22T16:48:24.000Z</time>
      </trkpt>
      <trkpt lat="45.53139" lon="4.41108">
        <ele>849.59997558594</ele>
        <time>2015-08-22T16:48:27.000Z</time>
      </trkpt>
      <trkpt lat="45.53129" lon="4.41132">
        <ele>848.40002441406</ele>
        <time>2015-08-22T16:48:30.000Z</time>
      </trkpt>
      <trkpt lat="45.53119" lon="4.41159">
        <ele>847.20001220703</ele>
        <time>2015-08-22T16:48:34.000Z</time>
      </trkpt>
      <trkpt lat="45.53107" lon="4.41184">
        <ele>846.79998779297</ele>
        <time>2015-08-22T16:48:39.000Z</time>
      </trkpt>
      <trkpt lat="45.53105" lon="4.41189">
        <ele>847</ele>
        <time>2015-08-22T16:48:40.000Z</time>
      </trkpt>
      <trkpt lat="45.53099" lon="4.41215">
        <ele>846.79998779297</ele>
        <time>2015-08-22T16:48:45.000Z</time>
      </trkpt>
      <trkpt lat="45.53098" lon="4.41229">
        <ele>846.59997558594</ele>
        <time>2015-08-22T16:48:47.000Z</time>
      </trkpt>
      <trkpt lat="45.53094" lon="4.41261">
        <ele>846.59997558594</ele>
        <time>2015-08-22T16:48:51.000Z</time>
      </trkpt>
      <trkpt lat="45.53092" lon="4.41288">
        <ele>847.20001220703</ele>
        <time>2015-08-22T16:48:54.000Z</time>
      </trkpt>
      <trkpt lat="45.5309" lon="4.41316">
        <ele>848</ele>
        <time>2015-08-22T16:48:57.000Z</time>
      </trkpt>
      <trkpt lat="45.53091" lon="4.41342">
        <ele>849</ele>
        <time>2015-08-22T16:49:00.000Z</time>
      </trkpt>
      <trkpt lat="45.5309" lon="4.41369">
        <ele>850.20001220703</ele>
        <time>2015-08-22T16:49:03.000Z</time>
      </trkpt>
      <trkpt lat="45.5309" lon="4.41378">
        <ele>850.20001220703</ele>
        <time>2015-08-22T16:49:04.000Z</time>
      </trkpt>
      <trkpt lat="45.53091" lon="4.4141">
        <ele>850</ele>
        <time>2015-08-22T16:49:08.000Z</time>
      </trkpt>
      <trkpt lat="45.53091" lon="4.41418">
        <ele>850</ele>
        <time>2015-08-22T16:49:09.000Z</time>
      </trkpt>
      <trkpt lat="45.53088" lon="4.41445">
        <ele>849.79998779297</ele>
        <time>2015-08-22T16:49:13.000Z</time>
      </trkpt>
      <trkpt lat="45.53085" lon="4.41471">
        <ele>849</ele>
        <time>2015-08-22T16:49:17.000Z</time>
      </trkpt>
      <trkpt lat="45.53082" lon="4.41496">
        <ele>848.79998779297</ele>
        <time>2015-08-22T16:49:21.000Z</time>
      </trkpt>
      <trkpt lat="45.53081" lon="4.41503">
        <ele>849</ele>
        <time>2015-08-22T16:49:22.000Z</time>
      </trkpt>
      <trkpt lat="45.53078" lon="4.41531">
        <ele>849.40002441406</ele>
        <time>2015-08-22T16:49:26.000Z</time>
      </trkpt>
      <trkpt lat="45.53077" lon="4.41538">
        <ele>849.59997558594</ele>
        <time>2015-08-22T16:49:27.000Z</time>
      </trkpt>
      <trkpt lat="45.53075" lon="4.41568">
        <ele>851</ele>
        <time>2015-08-22T16:49:32.000Z</time>
      </trkpt>
      <trkpt lat="45.53074" lon="4.41585">
        <ele>852.59997558594</ele>
        <time>2015-08-22T16:49:35.000Z</time>
      </trkpt>
      <trkpt lat="45.53072" lon="4.41603">
        <ele>854.40002441406</ele>
        <time>2015-08-22T16:49:39.000Z</time>
      </trkpt>
      <trkpt lat="45.53072" lon="4.41611">
        <ele>855.20001220703</ele>
        <time>2015-08-22T16:49:41.000Z</time>
      </trkpt>
      <trkpt lat="45.53072" lon="4.41637">
        <ele>855.79998779297</ele>
        <time>2015-08-22T16:49:51.000Z</time>
      </trkpt>
      <trkpt lat="45.5307" lon="4.41647">
        <ele>856</ele>
        <time>2015-08-22T16:49:55.000Z</time>
      </trkpt>
      <trkpt lat="45.53066" lon="4.41674">
        <ele>856</ele>
        <time>2015-08-22T16:50:05.000Z</time>
      </trkpt>
      <trkpt lat="45.53063" lon="4.417">
        <ele>856</ele>
        <time>2015-08-22T16:50:13.000Z</time>
      </trkpt>
      <trkpt lat="45.53061" lon="4.41729">
        <ele>856.79998779297</ele>
        <time>2015-08-22T16:50:22.000Z</time>
      </trkpt>
      <trkpt lat="45.53056" lon="4.41753">
        <ele>857.40002441406</ele>
        <time>2015-08-22T16:50:30.000Z</time>
      </trkpt>
      <trkpt lat="45.53048" lon="4.41779">
        <ele>858.20001220703</ele>
        <time>2015-08-22T16:50:38.000Z</time>
      </trkpt>
      <trkpt lat="45.53039" lon="4.41801">
        <ele>858.59997558594</ele>
        <time>2015-08-22T16:50:45.000Z</time>
      </trkpt>
      <trkpt lat="45.53026" lon="4.41822">
        <ele>859.40002441406</ele>
        <time>2015-08-22T16:50:53.000Z</time>
      </trkpt>
      <trkpt lat="45.53013" lon="4.41843">
        <ele>860</ele>
        <time>2015-08-22T16:51:01.000Z</time>
      </trkpt>
      <trkpt lat="45.53" lon="4.41863">
        <ele>860.79998779297</ele>
        <time>2015-08-22T16:51:08.000Z</time>
      </trkpt>
      <trkpt lat="45.52988" lon="4.41885">
        <ele>861.79998779297</ele>
        <time>2015-08-22T16:51:13.000Z</time>
      </trkpt>
      <trkpt lat="45.52979" lon="4.41911">
        <ele>861.40002441406</ele>
        <time>2015-08-22T16:51:17.000Z</time>
      </trkpt>
      <trkpt lat="45.52976" lon="4.41919">
        <ele>861.40002441406</ele>
        <time>2015-08-22T16:51:18.000Z</time>
      </trkpt>
      <trkpt lat="45.52964" lon="4.41947">
        <ele>860.79998779297</ele>
        <time>2015-08-22T16:51:22.000Z</time>
      </trkpt>
      <trkpt lat="45.52952" lon="4.41971">
        <ele>857.79998779297</ele>
        <time>2015-08-22T16:51:26.000Z</time>
      </trkpt>
      <trkpt lat="45.5294" lon="4.41996">
        <ele>854.59997558594</ele>
        <time>2015-08-22T16:51:30.000Z</time>
      </trkpt>
      <trkpt lat="45.52936" lon="4.42002">
        <ele>853.79998779297</ele>
        <time>2015-08-22T16:51:31.000Z</time>
      </trkpt>
      <trkpt lat="45.52917" lon="4.42013">
        <ele>852.79998779297</ele>
        <time>2015-08-22T16:51:34.000Z</time>
      </trkpt>
      <trkpt lat="45.52903" lon="4.42018">
        <ele>852.20001220703</ele>
        <time>2015-08-22T16:51:36.000Z</time>
      </trkpt>
      <trkpt lat="45.52881" lon="4.42026">
        <ele>850.79998779297</ele>
        <time>2015-08-22T16:51:39.000Z</time>
      </trkpt>
      <trkpt lat="45.52874" lon="4.4203">
        <ele>849.59997558594</ele>
        <time>2015-08-22T16:51:40.000Z</time>
      </trkpt>
      <trkpt lat="45.52853" lon="4.42041">
        <ele>846.40002441406</ele>
        <time>2015-08-22T16:51:43.000Z</time>
      </trkpt>
      <trkpt lat="45.52846" lon="4.42044">
        <ele>845.20001220703</ele>
        <time>2015-08-22T16:51:44.000Z</time>
      </trkpt>
      <trkpt lat="45.52823" lon="4.42052">
        <ele>841.79998779297</ele>
        <time>2015-08-22T16:51:47.000Z</time>
      </trkpt>
      <trkpt lat="45.52801" lon="4.42059">
        <ele>840.40002441406</ele>
        <time>2015-08-22T16:51:50.000Z</time>
      </trkpt>
      <trkpt lat="45.52781" lon="4.42068">
        <ele>838.79998779297</ele>
        <time>2015-08-22T16:51:53.000Z</time>
      </trkpt>
      <trkpt lat="45.52762" lon="4.42078">
        <ele>837.40002441406</ele>
        <time>2015-08-22T16:51:56.000Z</time>
      </trkpt>
      <trkpt lat="45.52743" lon="4.4209">
        <ele>837.40002441406</ele>
        <time>2015-08-22T16:51:59.000Z</time>
      </trkpt>
      <trkpt lat="45.52723" lon="4.42104">
        <ele>837.59997558594</ele>
        <time>2015-08-22T16:52:03.000Z</time>
      </trkpt>
      <trkpt lat="45.52717" lon="4.42108">
        <ele>837.59997558594</ele>
        <time>2015-08-22T16:52:05.000Z</time>
      </trkpt>
      <trkpt lat="45.52705" lon="4.42129">
        <ele>837</ele>
        <time>2015-08-22T16:52:11.000Z</time>
      </trkpt>
      <trkpt lat="45.52703" lon="4.42134">
        <ele>836.59997558594</ele>
        <time>2015-08-22T16:52:12.000Z</time>
      </trkpt>
      <trkpt lat="45.52697" lon="4.42159">
        <ele>835.20001220703</ele>
        <time>2015-08-22T16:52:17.000Z</time>
      </trkpt>
      <trkpt lat="45.5269" lon="4.42186">
        <ele>834.40002441406</ele>
        <time>2015-08-22T16:52:22.000Z</time>
      </trkpt>
      <trkpt lat="45.52678" lon="4.42209">
        <ele>834</ele>
        <time>2015-08-22T16:52:28.000Z</time>
      </trkpt>
      <trkpt lat="45.52665" lon="4.42228">
        <ele>833.20001220703</ele>
        <time>2015-08-22T16:52:36.000Z</time>
      </trkpt>
      <trkpt lat="45.52655" lon="4.42249">
        <ele>834.20001220703</ele>
        <time>2015-08-22T16:52:43.000Z</time>
      </trkpt>
      <trkpt lat="45.52644" lon="4.42266">
        <ele>835.20001220703</ele>
        <time>2015-08-22T16:52:51.000Z</time>
      </trkpt>
      <trkpt lat="45.52638" lon="4.42273">
        <ele>835.59997558594</ele>
        <time>2015-08-22T16:55:12.000Z</time>
      </trkpt>
      <trkpt lat="45.52628" lon="4.42291">
        <ele>835.40002441406</ele>
        <time>2015-08-22T16:55:16.000Z</time>
      </trkpt>
      <trkpt lat="45.52613" lon="4.42308">
        <ele>834.40002441406</ele>
        <time>2015-08-22T16:55:20.000Z</time>
      </trkpt>
      <trkpt lat="45.52595" lon="4.42325">
        <ele>833</ele>
        <time>2015-08-22T16:55:24.000Z</time>
      </trkpt>
      <trkpt lat="45.5258" lon="4.4234">
        <ele>832.40002441406</ele>
        <time>2015-08-22T16:55:27.000Z</time>
      </trkpt>
      <trkpt lat="45.52563" lon="4.42354">
        <ele>831.59997558594</ele>
        <time>2015-08-22T16:55:30.000Z</time>
      </trkpt>
      <trkpt lat="45.52545" lon="4.4237">
        <ele>830.59997558594</ele>
        <time>2015-08-22T16:55:33.000Z</time>
      </trkpt>
      <trkpt lat="45.52527" lon="4.42388">
        <ele>828.79998779297</ele>
        <time>2015-08-22T16:55:36.000Z</time>
      </trkpt>
      <trkpt lat="45.52508" lon="4.42408">
        <ele>827</ele>
        <time>2015-08-22T16:55:39.000Z</time>
      </trkpt>
      <trkpt lat="45.52489" lon="4.42429">
        <ele>826</ele>
        <time>2015-08-22T16:55:42.000Z</time>
      </trkpt>
      <trkpt lat="45.52469" lon="4.42447">
        <ele>825.20001220703</ele>
        <time>2015-08-22T16:55:45.000Z</time>
      </trkpt>
      <trkpt lat="45.52463" lon="4.42451">
        <ele>824.59997558594</ele>
        <time>2015-08-22T16:55:46.000Z</time>
      </trkpt>
      <trkpt lat="45.52443" lon="4.42463">
        <ele>822.59997558594</ele>
        <time>2015-08-22T16:55:49.000Z</time>
      </trkpt>
      <trkpt lat="45.52424" lon="4.42473">
        <ele>820.59997558594</ele>
        <time>2015-08-22T16:55:52.000Z</time>
      </trkpt>
      <trkpt lat="45.52405" lon="4.42479">
        <ele>819.20001220703</ele>
        <time>2015-08-22T16:55:55.000Z</time>
      </trkpt>
      <trkpt lat="45.52387" lon="4.42483">
        <ele>818.59997558594</ele>
        <time>2015-08-22T16:55:58.000Z</time>
      </trkpt>
      <trkpt lat="45.52368" lon="4.42489">
        <ele>818.40002441406</ele>
        <time>2015-08-22T16:56:02.000Z</time>
      </trkpt>
      <trkpt lat="45.52349" lon="4.42497">
        <ele>818.20001220703</ele>
        <time>2015-08-22T16:56:07.000Z</time>
      </trkpt>
      <trkpt lat="45.52345" lon="4.42499">
        <ele>818.20001220703</ele>
        <time>2015-08-22T16:56:08.000Z</time>
      </trkpt>
      <trkpt lat="45.5233" lon="4.42503">
        <ele>817.59997558594</ele>
        <time>2015-08-22T16:56:12.000Z</time>
      </trkpt>
      <trkpt lat="45.52311" lon="4.42491">
        <ele>816</ele>
        <time>2015-08-22T16:56:17.000Z</time>
      </trkpt>
      <trkpt lat="45.52297" lon="4.42486">
        <ele>815.20001220703</ele>
        <time>2015-08-22T16:56:20.000Z</time>
      </trkpt>
      <trkpt lat="45.52277" lon="4.42484">
        <ele>815</ele>
        <time>2015-08-22T16:56:24.000Z</time>
      </trkpt>
      <trkpt lat="45.52256" lon="4.42484">
        <ele>815.20001220703</ele>
        <time>2015-08-22T16:56:28.000Z</time>
      </trkpt>
      <trkpt lat="45.52236" lon="4.42483">
        <ele>814.59997558594</ele>
        <time>2015-08-22T16:56:32.000Z</time>
      </trkpt>
      <trkpt lat="45.52232" lon="4.42482">
        <ele>814.59997558594</ele>
        <time>2015-08-22T16:56:33.000Z</time>
      </trkpt>
      <trkpt lat="45.52213" lon="4.42476">
        <ele>813.79998779297</ele>
        <time>2015-08-22T16:56:37.000Z</time>
      </trkpt>
      <trkpt lat="45.52193" lon="4.42468">
        <ele>813.20001220703</ele>
        <time>2015-08-22T16:56:41.000Z</time>
      </trkpt>
      <trkpt lat="45.52172" lon="4.4246">
        <ele>812.40002441406</ele>
        <time>2015-08-22T16:56:45.000Z</time>
      </trkpt>
      <trkpt lat="45.52152" lon="4.42451">
        <ele>811.59997558594</ele>
        <time>2015-08-22T16:56:49.000Z</time>
      </trkpt>
      <trkpt lat="45.5213" lon="4.42443">
        <ele>810</ele>
        <time>2015-08-22T16:56:53.000Z</time>
      </trkpt>
      <trkpt lat="45.52112" lon="4.42437">
        <ele>808</ele>
        <time>2015-08-22T16:56:56.000Z</time>
      </trkpt>
      <trkpt lat="45.52092" lon="4.42429">
        <ele>806</ele>
        <time>2015-08-22T16:56:59.000Z</time>
      </trkpt>
      <trkpt lat="45.52073" lon="4.4242">
        <ele>803.59997558594</ele>
        <time>2015-08-22T16:57:02.000Z</time>
      </trkpt>
      <trkpt lat="45.52055" lon="4.4241">
        <ele>801.20001220703</ele>
        <time>2015-08-22T16:57:05.000Z</time>
      </trkpt>
      <trkpt lat="45.52038" lon="4.424">
        <ele>800.59997558594</ele>
        <time>2015-08-22T16:57:08.000Z</time>
      </trkpt>
      <trkpt lat="45.52021" lon="4.4239">
        <ele>800.59997558594</ele>
        <time>2015-08-22T16:57:11.000Z</time>
      </trkpt>
      <trkpt lat="45.52005" lon="4.42379">
        <ele>800.79998779297</ele>
        <time>2015-08-22T16:57:14.000Z</time>
      </trkpt>
      <trkpt lat="45.51988" lon="4.42368">
        <ele>800.59997558594</ele>
        <time>2015-08-22T16:57:17.000Z</time>
      </trkpt>
      <trkpt lat="45.5197" lon="4.42353">
        <ele>800.20001220703</ele>
        <time>2015-08-22T16:57:21.000Z</time>
      </trkpt>
      <trkpt lat="45.51951" lon="4.42337">
        <ele>801.59997558594</ele>
        <time>2015-08-22T16:57:26.000Z</time>
      </trkpt>
      <trkpt lat="45.51936" lon="4.42323">
        <ele>803.20001220703</ele>
        <time>2015-08-22T16:57:31.000Z</time>
      </trkpt>
      <trkpt lat="45.51934" lon="4.4232">
        <ele>803.20001220703</ele>
        <time>2015-08-22T16:57:32.000Z</time>
      </trkpt>
      <trkpt lat="45.51916" lon="4.42317">
        <ele>806.20001220703</ele>
        <time>2015-08-22T16:57:40.000Z</time>
      </trkpt>
      <trkpt lat="45.51902" lon="4.42334">
        <ele>807.40002441406</ele>
        <time>2015-08-22T16:57:49.000Z</time>
      </trkpt>
      <trkpt lat="45.51889" lon="4.42357">
        <ele>808.59997558594</ele>
        <time>2015-08-22T16:57:57.000Z</time>
      </trkpt>
      <trkpt lat="45.51875" lon="4.42378">
        <ele>809.79998779297</ele>
        <time>2015-08-22T16:58:02.000Z</time>
      </trkpt>
      <trkpt lat="45.51865" lon="4.42383">
        <ele>810.59997558594</ele>
        <time>2015-08-22T16:58:05.000Z</time>
      </trkpt>
      <trkpt lat="45.51862" lon="4.42382">
        <ele>810.59997558594</ele>
        <time>2015-08-22T16:58:07.000Z</time>
      </trkpt>
      <trkpt lat="45.51868" lon="4.42387">
        <ele>810.59997558594</ele>
        <time>2015-08-22T16:58:16.000Z</time>
      </trkpt>
      <trkpt lat="45.51881" lon="4.4237">
        <ele>809.20001220703</ele>
        <time>2015-08-22T16:58:24.000Z</time>
      </trkpt>
      <trkpt lat="45.51895" lon="4.42352">
        <ele>808</ele>
        <time>2015-08-22T16:58:31.000Z</time>
      </trkpt>
      <trkpt lat="45.519" lon="4.42336">
        <ele>807.59997558594</ele>
        <time>2015-08-22T16:58:36.000Z</time>
      </trkpt>
      <trkpt lat="45.51883" lon="4.42328">
        <ele>809.20001220703</ele>
        <time>2015-08-22T16:58:42.000Z</time>
      </trkpt>
      <trkpt lat="45.51865" lon="4.42325">
        <ele>811</ele>
        <time>2015-08-22T16:58:47.000Z</time>
      </trkpt>
      <trkpt lat="45.51847" lon="4.42318">
        <ele>813</ele>
        <time>2015-08-22T16:58:52.000Z</time>
      </trkpt>
      <trkpt lat="45.51834" lon="4.423">
        <ele>814.40002441406</ele>
        <time>2015-08-22T16:58:58.000Z</time>
      </trkpt>
      <trkpt lat="45.5182" lon="4.42279">
        <ele>816</ele>
        <time>2015-08-22T16:59:07.000Z</time>
      </trkpt>
      <trkpt lat="45.51809" lon="4.42256">
        <ele>817.79998779297</ele>
        <time>2015-08-22T16:59:15.000Z</time>
      </trkpt>
      <trkpt lat="45.51798" lon="4.42233">
        <ele>819.20001220703</ele>
        <time>2015-08-22T16:59:23.000Z</time>
      </trkpt>
      <trkpt lat="45.51783" lon="4.42213">
        <ele>819.40002441406</ele>
        <time>2015-08-22T16:59:31.000Z</time>
      </trkpt>
      <trkpt lat="45.51773" lon="4.4219">
        <ele>819.20001220703</ele>
        <time>2015-08-22T16:59:36.000Z</time>
      </trkpt>
      <trkpt lat="45.51763" lon="4.42162">
        <ele>817.40002441406</ele>
        <time>2015-08-22T16:59:41.000Z</time>
      </trkpt>
      <trkpt lat="45.51758" lon="4.42157">
        <ele>817</ele>
        <time>2015-08-22T16:59:42.000Z</time>
      </trkpt>
      <trkpt lat="45.51743" lon="4.42142">
        <ele>815.79998779297</ele>
        <time>2015-08-22T16:59:45.000Z</time>
      </trkpt>
      <trkpt lat="45.51727" lon="4.42124">
        <ele>814.59997558594</ele>
        <time>2015-08-22T16:59:49.000Z</time>
      </trkpt>
      <trkpt lat="45.5171" lon="4.42104">
        <ele>812.59997558594</ele>
        <time>2015-08-22T16:59:53.000Z</time>
      </trkpt>
      <trkpt lat="45.51692" lon="4.42087">
        <ele>810</ele>
        <time>2015-08-22T16:59:58.000Z</time>
      </trkpt>
      <trkpt lat="45.51686" lon="4.42082">
        <ele>809</ele>
        <time>2015-08-22T17:00:00.000Z</time>
      </trkpt>
      <trkpt lat="45.51667" lon="4.42067">
        <ele>806.20001220703</ele>
        <time>2015-08-22T17:00:05.000Z</time>
      </trkpt>
      <trkpt lat="45.51651" lon="4.42069">
        <ele>803.59997558594</ele>
        <time>2015-08-22T17:00:08.000Z</time>
      </trkpt>
      <trkpt lat="45.51647" lon="4.42069">
        <ele>802.79998779297</ele>
        <time>2015-08-22T17:00:09.000Z</time>
      </trkpt>
      <trkpt lat="45.51631" lon="4.42057">
        <ele>800</ele>
        <time>2015-08-22T17:00:13.000Z</time>
      </trkpt>
      <trkpt lat="45.51622" lon="4.42047">
        <ele>797.79998779297</ele>
        <time>2015-08-22T17:00:15.000Z</time>
      </trkpt>
      <trkpt lat="45.51604" lon="4.42027">
        <ele>793.40002441406</ele>
        <time>2015-08-22T17:00:19.000Z</time>
      </trkpt>
      <trkpt lat="45.51601" lon="4.42022">
        <ele>792.20001220703</ele>
        <time>2015-08-22T17:00:20.000Z</time>
      </trkpt>
      <trkpt lat="45.51585" lon="4.41999">
        <ele>787</ele>
        <time>2015-08-22T17:00:24.000Z</time>
      </trkpt>
      <trkpt lat="45.51567" lon="4.4198">
        <ele>781.79998779297</ele>
        <time>2015-08-22T17:00:28.000Z</time>
      </trkpt>
      <trkpt lat="45.51552" lon="4.41966">
        <ele>777.40002441406</ele>
        <time>2015-08-22T17:00:31.000Z</time>
      </trkpt>
      <trkpt lat="45.51536" lon="4.4195">
        <ele>773.20001220703</ele>
        <time>2015-08-22T17:00:34.000Z</time>
      </trkpt>
      <trkpt lat="45.51526" lon="4.41931">
        <ele>769.59997558594</ele>
        <time>2015-08-22T17:00:37.000Z</time>
      </trkpt>
      <trkpt lat="45.51523" lon="4.41926">
        <ele>768.59997558594</ele>
        <time>2015-08-22T17:00:38.000Z</time>
      </trkpt>
      <trkpt lat="45.51511" lon="4.41915">
        <ele>765.20001220703</ele>
        <time>2015-08-22T17:00:42.000Z</time>
      </trkpt>
      <trkpt lat="45.51499" lon="4.41892">
        <ele>760.40002441406</ele>
        <time>2015-08-22T17:00:48.000Z</time>
      </trkpt>
      <trkpt lat="45.51495" lon="4.41888">
        <ele>759.40002441406</ele>
        <time>2015-08-22T17:00:49.000Z</time>
      </trkpt>
      <trkpt lat="45.51478" lon="4.41878">
        <ele>755.20001220703</ele>
        <time>2015-08-22T17:00:53.000Z</time>
      </trkpt>
      <trkpt lat="45.51473" lon="4.41877">
        <ele>754.40002441406</ele>
        <time>2015-08-22T17:00:54.000Z</time>
      </trkpt>
      <trkpt lat="45.51458" lon="4.41873">
        <ele>751.40002441406</ele>
        <time>2015-08-22T17:00:58.000Z</time>
      </trkpt>
      <trkpt lat="45.51447" lon="4.41866">
        <ele>749.40002441406</ele>
        <time>2015-08-22T17:01:01.000Z</time>
      </trkpt>
      <trkpt lat="45.51426" lon="4.4187">
        <ele>747</ele>
        <time>2015-08-22T17:01:07.000Z</time>
      </trkpt>
      <trkpt lat="45.51418" lon="4.41879">
        <ele>746.79998779297</ele>
        <time>2015-08-22T17:01:09.000Z</time>
      </trkpt>
      <trkpt lat="45.51405" lon="4.41894">
        <ele>745.59997558594</ele>
        <time>2015-08-22T17:01:13.000Z</time>
      </trkpt>
      <trkpt lat="45.5139" lon="4.41888">
        <ele>742.40002441406</ele>
        <time>2015-08-22T17:01:18.000Z</time>
      </trkpt>
      <trkpt lat="45.51373" lon="4.41877">
        <ele>738.79998779297</ele>
        <time>2015-08-22T17:01:24.000Z</time>
      </trkpt>
      <trkpt lat="45.5136" lon="4.41853">
        <ele>734.79998779297</ele>
        <time>2015-08-22T17:01:31.000Z</time>
      </trkpt>
      <trkpt lat="45.51341" lon="4.41843">
        <ele>730.20001220703</ele>
        <time>2015-08-22T17:01:37.000Z</time>
      </trkpt>
      <trkpt lat="45.51326" lon="4.41828">
        <ele>725.79998779297</ele>
        <time>2015-08-22T17:01:44.000Z</time>
      </trkpt>
      <trkpt lat="45.51326" lon="4.41827">
        <ele>725.59997558594</ele>
        <time>2015-08-22T17:01:45.000Z</time>
      </trkpt>
      <trkpt lat="45.51314" lon="4.41808">
        <ele>721.20001220703</ele>
        <time>2015-08-22T17:02:00.000Z</time>
      </trkpt>
      <trkpt lat="45.51308" lon="4.41779">
        <ele>716.79998779297</ele>
        <time>2015-08-22T17:02:06.000Z</time>
      </trkpt>
      <trkpt lat="45.51305" lon="4.41753">
        <ele>710.40002441406</ele>
        <time>2015-08-22T17:02:12.000Z</time>
      </trkpt>
      <trkpt lat="45.51304" lon="4.41727">
        <ele>704.20001220703</ele>
        <time>2015-08-22T17:02:19.000Z</time>
      </trkpt>
      <trkpt lat="45.51303" lon="4.41724">
        <ele>703.40002441406</ele>
        <time>2015-08-22T17:02:20.000Z</time>
      </trkpt>
      <trkpt lat="45.51304" lon="4.41697">
        <ele>697</ele>
        <time>2015-08-22T17:02:29.000Z</time>
      </trkpt>
      <trkpt lat="45.51313" lon="4.41673">
        <ele>691.79998779297</ele>
        <time>2015-08-22T17:02:38.000Z</time>
      </trkpt>
      <trkpt lat="45.51322" lon="4.41661">
        <ele>689.79998779297</ele>
        <time>2015-08-22T17:02:44.000Z</time>
      </trkpt>
      <trkpt lat="45.51306" lon="4.4165">
        <ele>684.79998779297</ele>
        <time>2015-08-22T17:02:51.000Z</time>
      </trkpt>
      <trkpt lat="45.51283" lon="4.41653">
        <ele>682.20001220703</ele>
        <time>2015-08-22T17:02:56.000Z</time>
      </trkpt>
      <trkpt lat="45.51278" lon="4.41653">
        <ele>681.59997558594</ele>
        <time>2015-08-22T17:02:57.000Z</time>
      </trkpt>
      <trkpt lat="45.51274" lon="4.41655">
        <ele>681.40002441406</ele>
        <time>2015-08-22T17:02:58.000Z</time>
      </trkpt>
      <trkpt lat="45.51257" lon="4.41671">
        <ele>682.20001220703</ele>
        <time>2015-08-22T17:03:02.000Z</time>
      </trkpt>
      <trkpt lat="45.51253" lon="4.41676">
        <ele>682.40002441406</ele>
        <time>2015-08-22T17:03:03.000Z</time>
      </trkpt>
      <trkpt lat="45.51238" lon="4.41696">
        <ele>683.79998779297</ele>
        <time>2015-08-22T17:03:06.000Z</time>
      </trkpt>
      <trkpt lat="45.51223" lon="4.41723">
        <ele>685.20001220703</ele>
        <time>2015-08-22T17:03:09.000Z</time>
      </trkpt>
      <trkpt lat="45.5121" lon="4.41744">
        <ele>684.79998779297</ele>
        <time>2015-08-22T17:03:11.000Z</time>
      </trkpt>
      <trkpt lat="45.51198" lon="4.41765">
        <ele>684.20001220703</ele>
        <time>2015-08-22T17:03:13.000Z</time>
      </trkpt>
      <trkpt lat="45.51188" lon="4.41787">
        <ele>683.20001220703</ele>
        <time>2015-08-22T17:03:15.000Z</time>
      </trkpt>
      <trkpt lat="45.51177" lon="4.41818">
        <ele>681.59997558594</ele>
        <time>2015-08-22T17:03:18.000Z</time>
      </trkpt>
      <trkpt lat="45.51173" lon="4.41827">
        <ele>680.79998779297</ele>
        <time>2015-08-22T17:03:19.000Z</time>
      </trkpt>
      <trkpt lat="45.51157" lon="4.41844">
        <ele>676.20001220703</ele>
        <time>2015-08-22T17:03:22.000Z</time>
      </trkpt>
      <trkpt lat="45.51137" lon="4.4184">
        <ele>669.20001220703</ele>
        <time>2015-08-22T17:03:25.000Z</time>
      </trkpt>
      <trkpt lat="45.51123" lon="4.41834">
        <ele>667</ele>
        <time>2015-08-22T17:03:27.000Z</time>
      </trkpt>
      <trkpt lat="45.51103" lon="4.41827">
        <ele>665</ele>
        <time>2015-08-22T17:03:30.000Z</time>
      </trkpt>
      <trkpt lat="45.51086" lon="4.41821">
        <ele>663.40002441406</ele>
        <time>2015-08-22T17:03:34.000Z</time>
      </trkpt>
      <trkpt lat="45.5107" lon="4.41834">
        <ele>662.59997558594</ele>
        <time>2015-08-22T17:03:40.000Z</time>
      </trkpt>
      <trkpt lat="45.51058" lon="4.41857">
        <ele>662.40002441406</ele>
        <time>2015-08-22T17:03:45.000Z</time>
      </trkpt>
      <trkpt lat="45.51056" lon="4.41863">
        <ele>662.40002441406</ele>
        <time>2015-08-22T17:03:46.000Z</time>
      </trkpt>
      <trkpt lat="45.51055" lon="4.4187">
        <ele>662.20001220703</ele>
        <time>2015-08-22T17:03:47.000Z</time>
      </trkpt>
      <trkpt lat="45.51058" lon="4.419">
        <ele>660.40002441406</ele>
        <time>2015-08-22T17:03:51.000Z</time>
      </trkpt>
      <trkpt lat="45.51069" lon="4.4192">
        <ele>660</ele>
        <time>2015-08-22T17:03:54.000Z</time>
      </trkpt>
      <trkpt lat="45.51088" lon="4.41931">
        <ele>660.79998779297</ele>
        <time>2015-08-22T17:03:57.000Z</time>
      </trkpt>
      <trkpt lat="45.51103" lon="4.41933">
        <ele>661.79998779297</ele>
        <time>2015-08-22T17:03:59.000Z</time>
      </trkpt>
      <trkpt lat="45.51127" lon="4.41937">
        <ele>663.40002441406</ele>
        <time>2015-08-22T17:04:02.000Z</time>
      </trkpt>
      <trkpt lat="45.51154" lon="4.41947">
        <ele>669.59997558594</ele>
        <time>2015-08-22T17:04:05.000Z</time>
      </trkpt>
      <trkpt lat="45.51162" lon="4.41952">
        <ele>671.79998779297</ele>
        <time>2015-08-22T17:04:06.000Z</time>
      </trkpt>
      <trkpt lat="45.51178" lon="4.41968">
        <ele>675</ele>
        <time>2015-08-22T17:04:08.000Z</time>
      </trkpt>
      <trkpt lat="45.51189" lon="4.4199">
        <ele>676</ele>
        <time>2015-08-22T17:04:10.000Z</time>
      </trkpt>
      <trkpt lat="45.51195" lon="4.42015">
        <ele>674.59997558594</ele>
        <time>2015-08-22T17:04:12.000Z</time>
      </trkpt>
      <trkpt lat="45.51198" lon="4.42041">
        <ele>672</ele>
        <time>2015-08-22T17:04:14.000Z</time>
      </trkpt>
      <trkpt lat="45.512" lon="4.42068">
        <ele>670</ele>
        <time>2015-08-22T17:04:16.000Z</time>
      </trkpt>
      <trkpt lat="45.51201" lon="4.42081">
        <ele>669</ele>
        <time>2015-08-22T17:04:17.000Z</time>
      </trkpt>
      <trkpt lat="45.51205" lon="4.42106">
        <ele>667.40002441406</ele>
        <time>2015-08-22T17:04:19.000Z</time>
      </trkpt>
      <trkpt lat="45.51207" lon="4.42118">
        <ele>666.79998779297</ele>
        <time>2015-08-22T17:04:20.000Z</time>
      </trkpt>
      <trkpt lat="45.51221" lon="4.42151">
        <ele>666.40002441406</ele>
        <time>2015-08-22T17:04:23.000Z</time>
      </trkpt>
      <trkpt lat="45.51232" lon="4.42172">
        <ele>666.59997558594</ele>
        <time>2015-08-22T17:04:25.000Z</time>
      </trkpt>
      <trkpt lat="45.51233" lon="4.42198">
        <ele>662.59997558594</ele>
        <time>2015-08-22T17:04:27.000Z</time>
      </trkpt>
      <trkpt lat="45.51222" lon="4.4222">
        <ele>657.79998779297</ele>
        <time>2015-08-22T17:04:29.000Z</time>
      </trkpt>
      <trkpt lat="45.51205" lon="4.42226">
        <ele>652</ele>
        <time>2015-08-22T17:04:33.000Z</time>
      </trkpt>
      <trkpt lat="45.51209" lon="4.42198">
        <ele>653.59997558594</ele>
        <time>2015-08-22T17:04:37.000Z</time>
      </trkpt>
      <trkpt lat="45.51207" lon="4.42165">
        <ele>658</ele>
        <time>2015-08-22T17:04:40.000Z</time>
      </trkpt>
      <trkpt lat="45.51194" lon="4.42144">
        <ele>656.59997558594</ele>
        <time>2015-08-22T17:04:42.000Z</time>
      </trkpt>
      <trkpt lat="45.51177" lon="4.42122">
        <ele>654</ele>
        <time>2015-08-22T17:04:44.000Z</time>
      </trkpt>
      <trkpt lat="45.51158" lon="4.42101">
        <ele>649.59997558594</ele>
        <time>2015-08-22T17:04:46.000Z</time>
      </trkpt>
      <trkpt lat="45.51136" lon="4.42083">
        <ele>643.40002441406</ele>
        <time>2015-08-22T17:04:48.000Z</time>
      </trkpt>
      <trkpt lat="45.51112" lon="4.42076">
        <ele>642.20001220703</ele>
        <time>2015-08-22T17:04:50.000Z</time>
      </trkpt>
      <trkpt lat="45.51088" lon="4.42086">
        <ele>638.79998779297</ele>
        <time>2015-08-22T17:04:52.000Z</time>
      </trkpt>
      <trkpt lat="45.51068" lon="4.4211">
        <ele>632</ele>
        <time>2015-08-22T17:04:54.000Z</time>
      </trkpt>
      <trkpt lat="45.51058" lon="4.42122">
        <ele>629</ele>
        <time>2015-08-22T17:04:55.000Z</time>
      </trkpt>
      <trkpt lat="45.51048" lon="4.42135">
        <ele>626.59997558594</ele>
        <time>2015-08-22T17:04:56.000Z</time>
      </trkpt>
      <trkpt lat="45.51035" lon="4.4217">
        <ele>623</ele>
        <time>2015-08-22T17:04:58.000Z</time>
      </trkpt>
      <trkpt lat="45.51032" lon="4.42209">
        <ele>619.40002441406</ele>
        <time>2015-08-22T17:05:00.000Z</time>
      </trkpt>
      <trkpt lat="45.51027" lon="4.42247">
        <ele>616.40002441406</ele>
        <time>2015-08-22T17:05:02.000Z</time>
      </trkpt>
      <trkpt lat="45.51016" lon="4.42282">
        <ele>614.20001220703</ele>
        <time>2015-08-22T17:05:04.000Z</time>
      </trkpt>
      <trkpt lat="45.51002" lon="4.42315">
        <ele>613.40002441406</ele>
        <time>2015-08-22T17:05:06.000Z</time>
      </trkpt>
      <trkpt lat="45.50983" lon="4.42337">
        <ele>610.79998779297</ele>
        <time>2015-08-22T17:05:08.000Z</time>
      </trkpt>
      <trkpt lat="45.50961" lon="4.42341">
        <ele>610.79998779297</ele>
        <time>2015-08-22T17:05:10.000Z</time>
      </trkpt>
      <trkpt lat="45.50938" lon="4.42331">
        <ele>612.79998779297</ele>
        <time>2015-08-22T17:05:12.000Z</time>
      </trkpt>
      <trkpt lat="45.50915" lon="4.42325">
        <ele>613.40002441406</ele>
        <time>2015-08-22T17:05:14.000Z</time>
      </trkpt>
      <trkpt lat="45.50897" lon="4.4234">
        <ele>610.20001220703</ele>
        <time>2015-08-22T17:05:16.000Z</time>
      </trkpt>
      <trkpt lat="45.50892" lon="4.42368">
        <ele>604.79998779297</ele>
        <time>2015-08-22T17:05:18.000Z</time>
      </trkpt>
      <trkpt lat="45.50894" lon="4.42383">
        <ele>603.20001220703</ele>
        <time>2015-08-22T17:05:19.000Z</time>
      </trkpt>
      <trkpt lat="45.509" lon="4.42412">
        <ele>601</ele>
        <time>2015-08-22T17:05:21.000Z</time>
      </trkpt>
      <trkpt lat="45.50909" lon="4.42441">
        <ele>598.59997558594</ele>
        <time>2015-08-22T17:05:23.000Z</time>
      </trkpt>
      <trkpt lat="45.50914" lon="4.42456">
        <ele>597.59997558594</ele>
        <time>2015-08-22T17:05:24.000Z</time>
      </trkpt>
      <trkpt lat="45.50919" lon="4.42469">
        <ele>597</ele>
        <time>2015-08-22T17:05:25.000Z</time>
      </trkpt>
      <trkpt lat="45.50936" lon="4.42493">
        <ele>595.20001220703</ele>
        <time>2015-08-22T17:05:27.000Z</time>
      </trkpt>
      <trkpt lat="45.50955" lon="4.42511">
        <ele>593.40002441406</ele>
        <time>2015-08-22T17:05:29.000Z</time>
      </trkpt>
      <trkpt lat="45.50973" lon="4.42534">
        <ele>592.40002441406</ele>
        <time>2015-08-22T17:05:31.000Z</time>
      </trkpt>
      <trkpt lat="45.50985" lon="4.42563">
        <ele>591.59997558594</ele>
        <time>2015-08-22T17:05:33.000Z</time>
      </trkpt>
      <trkpt lat="45.50987" lon="4.42594">
        <ele>591.20001220703</ele>
        <time>2015-08-22T17:05:35.000Z</time>
      </trkpt>
      <trkpt lat="45.50981" lon="4.42624">
        <ele>590.79998779297</ele>
        <time>2015-08-22T17:05:37.000Z</time>
      </trkpt>
      <trkpt lat="45.50967" lon="4.42651">
        <ele>587.20001220703</ele>
        <time>2015-08-22T17:05:39.000Z</time>
      </trkpt>
      <trkpt lat="45.50951" lon="4.42673">
        <ele>587</ele>
        <time>2015-08-22T17:05:41.000Z</time>
      </trkpt>
      <trkpt lat="45.50933" lon="4.42695">
        <ele>585.79998779297</ele>
        <time>2015-08-22T17:05:43.000Z</time>
      </trkpt>
      <trkpt lat="45.50913" lon="4.4271">
        <ele>586.59997558594</ele>
        <time>2015-08-22T17:05:45.000Z</time>
      </trkpt>
      <trkpt lat="45.5089" lon="4.42714">
        <ele>587.40002441406</ele>
        <time>2015-08-22T17:05:47.000Z</time>
      </trkpt>
      <trkpt lat="45.50868" lon="4.42718">
        <ele>587.20001220703</ele>
        <time>2015-08-22T17:05:49.000Z</time>
      </trkpt>
      <trkpt lat="45.50852" lon="4.42734">
        <ele>584.79998779297</ele>
        <time>2015-08-22T17:05:51.000Z</time>
      </trkpt>
      <trkpt lat="45.50849" lon="4.4276">
        <ele>582</ele>
        <time>2015-08-22T17:05:53.000Z</time>
      </trkpt>
      <trkpt lat="45.50856" lon="4.42789">
        <ele>579.40002441406</ele>
        <time>2015-08-22T17:05:55.000Z</time>
      </trkpt>
      <trkpt lat="45.50866" lon="4.42819">
        <ele>576.59997558594</ele>
        <time>2015-08-22T17:05:57.000Z</time>
      </trkpt>
      <trkpt lat="45.5087" lon="4.42849">
        <ele>575</ele>
        <time>2015-08-22T17:05:59.000Z</time>
      </trkpt>
      <trkpt lat="45.50865" lon="4.4288">
        <ele>574.40002441406</ele>
        <time>2015-08-22T17:06:01.000Z</time>
      </trkpt>
      <trkpt lat="45.50858" lon="4.42909">
        <ele>574.20001220703</ele>
        <time>2015-08-22T17:06:03.000Z</time>
      </trkpt>
      <trkpt lat="45.5085" lon="4.42938">
        <ele>573.59997558594</ele>
        <time>2015-08-22T17:06:05.000Z</time>
      </trkpt>
      <trkpt lat="45.50838" lon="4.42965">
        <ele>574</ele>
        <time>2015-08-22T17:06:07.000Z</time>
      </trkpt>
      <trkpt lat="45.50825" lon="4.42991">
        <ele>573.40002441406</ele>
        <time>2015-08-22T17:06:09.000Z</time>
      </trkpt>
      <trkpt lat="45.50818" lon="4.43004">
        <ele>572.40002441406</ele>
        <time>2015-08-22T17:06:10.000Z</time>
      </trkpt>
      <trkpt lat="45.50805" lon="4.4303">
        <ele>570</ele>
        <time>2015-08-22T17:06:12.000Z</time>
      </trkpt>
      <trkpt lat="45.50799" lon="4.43045">
        <ele>568.79998779297</ele>
        <time>2015-08-22T17:06:13.000Z</time>
      </trkpt>
      <trkpt lat="45.50788" lon="4.43074">
        <ele>568</ele>
        <time>2015-08-22T17:06:15.000Z</time>
      </trkpt>
      <trkpt lat="45.50777" lon="4.43105">
        <ele>566.40002441406</ele>
        <time>2015-08-22T17:06:17.000Z</time>
      </trkpt>
      <trkpt lat="45.50766" lon="4.43137">
        <ele>566.59997558594</ele>
        <time>2015-08-22T17:06:19.000Z</time>
      </trkpt>
      <trkpt lat="45.50754" lon="4.43169">
        <ele>566.59997558594</ele>
        <time>2015-08-22T17:06:21.000Z</time>
      </trkpt>
      <trkpt lat="45.50741" lon="4.432">
        <ele>562.79998779297</ele>
        <time>2015-08-22T17:06:23.000Z</time>
      </trkpt>
      <trkpt lat="45.50727" lon="4.43231">
        <ele>561.59997558594</ele>
        <time>2015-08-22T17:06:25.000Z</time>
      </trkpt>
      <trkpt lat="45.50711" lon="4.4326">
        <ele>559</ele>
        <time>2015-08-22T17:06:27.000Z</time>
      </trkpt>
      <trkpt lat="45.50702" lon="4.43273">
        <ele>558.79998779297</ele>
        <time>2015-08-22T17:06:28.000Z</time>
      </trkpt>
      <trkpt lat="45.50683" lon="4.43298">
        <ele>558.59997558594</ele>
        <time>2015-08-22T17:06:30.000Z</time>
      </trkpt>
      <trkpt lat="45.50665" lon="4.43324">
        <ele>558.59997558594</ele>
        <time>2015-08-22T17:06:32.000Z</time>
      </trkpt>
      <trkpt lat="45.50647" lon="4.4335">
        <ele>554.59997558594</ele>
        <time>2015-08-22T17:06:34.000Z</time>
      </trkpt>
      <trkpt lat="45.5063" lon="4.43372">
        <ele>552.20001220703</ele>
        <time>2015-08-22T17:06:36.000Z</time>
      </trkpt>
      <trkpt lat="45.50622" lon="4.43383">
        <ele>552.59997558594</ele>
        <time>2015-08-22T17:06:37.000Z</time>
      </trkpt>
      <trkpt lat="45.50606" lon="4.43403">
        <ele>553.79998779297</ele>
        <time>2015-08-22T17:06:39.000Z</time>
      </trkpt>
      <trkpt lat="45.50589" lon="4.43421">
        <ele>554</ele>
        <time>2015-08-22T17:06:41.000Z</time>
      </trkpt>
      <trkpt lat="45.50579" lon="4.43427">
        <ele>553.79998779297</ele>
        <time>2015-08-22T17:06:42.000Z</time>
      </trkpt>
      <trkpt lat="45.5056" lon="4.43439">
        <ele>553.59997558594</ele>
        <time>2015-08-22T17:06:44.000Z</time>
      </trkpt>
      <trkpt lat="45.5054" lon="4.43447">
        <ele>553.59997558594</ele>
        <time>2015-08-22T17:06:46.000Z</time>
      </trkpt>
      <trkpt lat="45.5053" lon="4.4345">
        <ele>553.40002441406</ele>
        <time>2015-08-22T17:06:47.000Z</time>
      </trkpt>
      <trkpt lat="45.5051" lon="4.43457">
        <ele>553.79998779297</ele>
        <time>2015-08-22T17:06:49.000Z</time>
      </trkpt>
      <trkpt lat="45.50491" lon="4.43464">
        <ele>554.20001220703</ele>
        <time>2015-08-22T17:06:51.000Z</time>
      </trkpt>
      <trkpt lat="45.50472" lon="4.43471">
        <ele>552.79998779297</ele>
        <time>2015-08-22T17:06:53.000Z</time>
      </trkpt>
      <trkpt lat="45.50455" lon="4.4348">
        <ele>552.20001220703</ele>
        <time>2015-08-22T17:06:55.000Z</time>
      </trkpt>
      <trkpt lat="45.50447" lon="4.43485">
        <ele>552.20001220703</ele>
        <time>2015-08-22T17:06:56.000Z</time>
      </trkpt>
      <trkpt lat="45.50424" lon="4.43503">
        <ele>551</ele>
        <time>2015-08-22T17:06:59.000Z</time>
      </trkpt>
      <trkpt lat="45.50418" lon="4.43509">
        <ele>550</ele>
        <time>2015-08-22T17:07:00.000Z</time>
      </trkpt>
      <trkpt lat="45.50402" lon="4.43525">
        <ele>547.79998779297</ele>
        <time>2015-08-22T17:07:03.000Z</time>
      </trkpt>
      <trkpt lat="45.50398" lon="4.4353">
        <ele>547</ele>
        <time>2015-08-22T17:07:04.000Z</time>
      </trkpt>
      <trkpt lat="45.50381" lon="4.43543">
        <ele>546.20001220703</ele>
        <time>2015-08-22T17:07:09.000Z</time>
      </trkpt>
      <trkpt lat="45.50376" lon="4.43547">
        <ele>545.79998779297</ele>
        <time>2015-08-22T17:07:10.000Z</time>
      </trkpt>
      <trkpt lat="45.50356" lon="4.4356">
        <ele>545</ele>
        <time>2015-08-22T17:07:13.000Z</time>
      </trkpt>
      <trkpt lat="45.50342" lon="4.43566">
        <ele>544.59997558594</ele>
        <time>2015-08-22T17:07:15.000Z</time>
      </trkpt>
      <trkpt lat="45.50321" lon="4.43563">
        <ele>544.79998779297</ele>
        <time>2015-08-22T17:07:18.000Z</time>
      </trkpt>
      <trkpt lat="45.50307" lon="4.43558">
        <ele>545</ele>
        <time>2015-08-22T17:07:20.000Z</time>
      </trkpt>
      <trkpt lat="45.50285" lon="4.43548">
        <ele>545.20001220703</ele>
        <time>2015-08-22T17:07:23.000Z</time>
      </trkpt>
      <trkpt lat="45.50264" lon="4.43537">
        <ele>545.20001220703</ele>
        <time>2015-08-22T17:07:26.000Z</time>
      </trkpt>
      <trkpt lat="45.50241" lon="4.43525">
        <ele>545.20001220703</ele>
        <time>2015-08-22T17:07:29.000Z</time>
      </trkpt>
      <trkpt lat="45.50221" lon="4.43513">
        <ele>545.40002441406</ele>
        <time>2015-08-22T17:07:32.000Z</time>
      </trkpt>
      <trkpt lat="45.50216" lon="4.43511">
        <ele>545.20001220703</ele>
        <time>2015-08-22T17:07:33.000Z</time>
      </trkpt>
      <trkpt lat="45.50219" lon="4.43537">
        <ele>542.59997558594</ele>
        <time>2015-08-22T17:07:38.000Z</time>
      </trkpt>
      <trkpt lat="45.5023" lon="4.43547">
        <ele>542.20001220703</ele>
        <time>2015-08-22T17:07:40.000Z</time>
      </trkpt>
      <trkpt lat="45.50236" lon="4.43551">
        <ele>542</ele>
        <time>2015-08-22T17:07:41.000Z</time>
      </trkpt>
      <trkpt lat="45.50253" lon="4.43563">
        <ele>541.40002441406</ele>
        <time>2015-08-22T17:07:44.000Z</time>
      </trkpt>
      <trkpt lat="45.50271" lon="4.43575">
        <ele>541.20001220703</ele>
        <time>2015-08-22T17:07:47.000Z</time>
      </trkpt>
      <trkpt lat="45.50283" lon="4.43583">
        <ele>540.79998779297</ele>
        <time>2015-08-22T17:07:49.000Z</time>
      </trkpt>
      <trkpt lat="45.503" lon="4.43594">
        <ele>540.59997558594</ele>
        <time>2015-08-22T17:07:52.000Z</time>
      </trkpt>
      <trkpt lat="45.50318" lon="4.43603">
        <ele>540</ele>
        <time>2015-08-22T17:07:55.000Z</time>
      </trkpt>
      <trkpt lat="45.50336" lon="4.43611">
        <ele>539.40002441406</ele>
        <time>2015-08-22T17:07:58.000Z</time>
      </trkpt>
      <trkpt lat="45.50353" lon="4.43618">
        <ele>539.20001220703</ele>
        <time>2015-08-22T17:08:01.000Z</time>
      </trkpt>
      <trkpt lat="45.50371" lon="4.43626">
        <ele>539</ele>
        <time>2015-08-22T17:08:04.000Z</time>
      </trkpt>
      <trkpt lat="45.50393" lon="4.43635">
        <ele>539.79998779297</ele>
        <time>2015-08-22T17:08:08.000Z</time>
      </trkpt>
      <trkpt lat="45.50407" lon="4.43644">
        <ele>540.59997558594</ele>
        <time>2015-08-22T17:08:11.000Z</time>
      </trkpt>
      <trkpt lat="45.50425" lon="4.43659">
        <ele>541.40002441406</ele>
        <time>2015-08-22T17:08:15.000Z</time>
      </trkpt>
      <trkpt lat="45.5044" lon="4.43675">
        <ele>541.79998779297</ele>
        <time>2015-08-22T17:08:18.000Z</time>
      </trkpt>
      <trkpt lat="45.50443" lon="4.43682">
        <ele>541.79998779297</ele>
        <time>2015-08-22T17:08:19.000Z</time>
      </trkpt>
      <trkpt lat="45.50442" lon="4.43709">
        <ele>539.79998779297</ele>
        <time>2015-08-22T17:08:22.000Z</time>
      </trkpt>
      <trkpt lat="45.50443" lon="4.43734">
        <ele>537.79998779297</ele>
        <time>2015-08-22T17:08:25.000Z</time>
      </trkpt>
      <trkpt lat="45.50463" lon="4.43745">
        <ele>538.79998779297</ele>
        <time>2015-08-22T17:08:29.000Z</time>
      </trkpt>
      <trkpt lat="45.50474" lon="4.43752">
        <ele>539.20001220703</ele>
        <time>2015-08-22T17:08:32.000Z</time>
      </trkpt>
      <trkpt lat="45.50477" lon="4.43755">
        <ele>539.20001220703</ele>
        <time>2015-08-22T17:08:33.000Z</time>
      </trkpt>
      <trkpt lat="45.50481" lon="4.4376">
        <ele>539</ele>
        <time>2015-08-22T17:08:35.000Z</time>
      </trkpt>
    </trkseg>
  </trk>
</gpx>